DTA652 FNLU-LPPT
Flight info
| Callsign | DTA652 |
|---|---|
| Flight time | 7h 26m |
| Altitude | 34000 |
| Route | VNA UA400 GAPAK DCT KINBU UB600 ACC UP685 KEMOK/N0495F360 UP685 BKO UR977 KUVEL/N0487F380 UR977 ADM UR724 ESS DCT TAKAV DCT VATZI |
| Aircraft | B77W/H-SDE1E2E3FGHIJ2J3J4J5M1RWXY/LB1D1 |
Departure
| Time | 2026-04-22 12:32 |
|---|---|
| Airport | Quatro de Fevereiro International Airport (FNLU) |
Arrival
| Time | 2026-04-22 19:58 |
|---|---|
| Airport | Lisbon Humberto Delgado Airport (LPPT) |
| Time | Latitude | Longitude | Altitude | Speed | Heading |
|---|---|---|---|---|---|
| 2026-04-22 12:30 | -8.85272 | 13.23705 | 263 ft | 11 kts | 137° |
| 2026-04-22 12:30 | -8.85327 | 13.23757 | 263 ft | 11 kts | 137° |
| 2026-04-22 12:30 | -8.85381 | 13.23806 | 263 ft | 10 kts | 144° |
| 2026-04-22 12:31 | -8.85444 | 13.23784 | 263 ft | 10 kts | 226° |
| 2026-04-22 12:31 | -8.85450 | 13.23777 | 263 ft | 0 kts | 227° |
| 2026-04-22 12:31 | -8.85495 | 13.23728 | 263 ft | 37 kts | 227° |
| 2026-04-22 12:31 | -8.85841 | 13.23356 | 265 ft | 106 kts | 226° |
| 2026-04-22 12:32 | -8.86490 | 13.22662 | 265 ft | 162 kts | 226° |
| 2026-04-22 12:32 | -8.88236 | 13.20844 | 1063 ft | 178 kts | 227° |
| 2026-04-22 12:32 | -8.89096 | 13.19927 | 1533 ft | 183 kts | 224° |
| 2026-04-22 12:33 | -8.89981 | 13.18993 | 1997 ft | 188 kts | 225° |
| 2026-04-22 12:33 | -8.90874 | 13.17964 | 2211 ft | 205 kts | 239° |
| 2026-04-22 12:33 | -8.91093 | 13.16534 | 2435 ft | 214 kts | 285° |
| 2026-04-22 12:33 | -8.90260 | 13.15320 | 2830 ft | 213 kts | 323° |
| 2026-04-22 12:34 | -8.89013 | 13.14505 | 3191 ft | 217 kts | 328° |
| 2026-04-22 12:34 | -8.87718 | 13.13689 | 3605 ft | 221 kts | 329° |
| 2026-04-22 12:34 | -8.86404 | 13.12859 | 4095 ft | 222 kts | 331° |
| 2026-04-22 12:34 | -8.85055 | 13.12013 | 4355 ft | 238 kts | 330° |
| 2026-04-22 12:35 | -8.83582 | 13.11091 | 4604 ft | 256 kts | 330° |
| 2026-04-22 12:35 | -8.82040 | 13.10120 | 5063 ft | 266 kts | 330° |
| 2026-04-22 12:35 | -8.80458 | 13.09120 | 5542 ft | 276 kts | 330° |
| 2026-04-22 12:35 | -8.79350 | 13.08416 | 5946 ft | 281 kts | 330° |
| 2026-04-22 12:36 | -8.77138 | 13.07014 | 6782 ft | 286 kts | 330° |
| 2026-04-22 12:36 | -8.75448 | 13.05941 | 7447 ft | 287 kts | 330° |
| 2026-04-22 12:36 | -8.73750 | 13.04862 | 8087 ft | 289 kts | 330° |
| 2026-04-22 12:36 | -8.72035 | 13.03772 | 8708 ft | 292 kts | 330° |
| 2026-04-22 12:37 | -8.70308 | 13.02673 | 9334 ft | 294 kts | 330° |
| 2026-04-22 12:37 | -8.68568 | 13.01566 | 9932 ft | 297 kts | 330° |
| 2026-04-22 12:37 | -8.66804 | 13.00443 | 10380 ft | 306 kts | 330° |
| 2026-04-22 12:37 | -8.65578 | 12.99664 | 10462 ft | 321 kts | 330° |
| 2026-04-22 12:38 | -8.62933 | 12.97985 | 10684 ft | 349 kts | 330° |
| 2026-04-22 12:38 | -8.60846 | 12.96660 | 10828 ft | 369 kts | 329° |
| 2026-04-22 12:38 | -8.59360 | 12.95715 | 11052 ft | 378 kts | 329° |
| 2026-04-22 12:38 | -8.56364 | 12.93807 | 11741 ft | 390 kts | 329° |
| 2026-04-22 12:39 | -8.54808 | 12.92816 | 12176 ft | 393 kts | 329° |
| 2026-04-22 12:39 | -8.50150 | 12.89849 | 13714 ft | 398 kts | 329° |
| 2026-04-22 12:39 | -8.47790 | 12.88348 | 14306 ft | 403 kts | 329° |
| 2026-04-22 12:40 | -8.45434 | 12.86849 | 14870 ft | 408 kts | 329° |
| 2026-04-22 12:40 | -8.42992 | 12.85297 | 15498 ft | 411 kts | 329° |
| 2026-04-22 12:40 | -8.40561 | 12.83751 | 16100 ft | 415 kts | 329° |
| 2026-04-22 12:40 | -8.38138 | 12.82211 | 16686 ft | 419 kts | 329° |
| 2026-04-22 12:41 | -8.35657 | 12.80635 | 17249 ft | 423 kts | 329° |
| 2026-04-22 12:41 | -8.33153 | 12.79044 | 17820 ft | 427 kts | 329° |
| 2026-04-22 12:41 | -8.30621 | 12.77436 | 18345 ft | 431 kts | 329° |
| 2026-04-22 12:41 | -8.28075 | 12.75819 | 18828 ft | 435 kts | 329° |
| 2026-04-22 12:42 | -8.25501 | 12.74184 | 19310 ft | 438 kts | 329° |
| 2026-04-22 12:42 | -8.22909 | 12.72539 | 19779 ft | 442 kts | 329° |
| 2026-04-22 12:42 | -8.20297 | 12.70881 | 20240 ft | 445 kts | 329° |
| 2026-04-22 12:42 | -8.17657 | 12.69205 | 20696 ft | 449 kts | 329° |
| 2026-04-22 12:43 | -8.15008 | 12.67524 | 21137 ft | 452 kts | 329° |
| 2026-04-22 12:43 | -8.12332 | 12.65826 | 21571 ft | 456 kts | 329° |
| 2026-04-22 12:43 | -8.09633 | 12.64114 | 21989 ft | 460 kts | 329° |
| 2026-04-22 12:43 | -8.06909 | 12.62386 | 22414 ft | 464 kts | 329° |
| 2026-04-22 12:44 | -8.04164 | 12.60645 | 22835 ft | 467 kts | 329° |
| 2026-04-22 12:44 | -8.01405 | 12.58896 | 23238 ft | 470 kts | 329° |
| 2026-04-22 12:44 | -7.98664 | 12.57158 | 23602 ft | 473 kts | 329° |
| 2026-04-22 12:44 | -7.95865 | 12.55383 | 23928 ft | 476 kts | 329° |
| 2026-04-22 12:45 | -7.93048 | 12.53598 | 24263 ft | 479 kts | 329° |
| 2026-04-22 12:45 | -7.90213 | 12.51801 | 24608 ft | 482 kts | 329° |
| 2026-04-22 12:45 | -7.87368 | 12.49999 | 24934 ft | 484 kts | 329° |
| 2026-04-22 12:45 | -7.84507 | 12.48187 | 25254 ft | 487 kts | 329° |
| 2026-04-22 12:46 | -7.81628 | 12.46363 | 25570 ft | 490 kts | 329° |
| 2026-04-22 12:46 | -7.78737 | 12.44532 | 25883 ft | 493 kts | 329° |
| 2026-04-22 12:46 | -7.75827 | 12.42690 | 26199 ft | 495 kts | 329° |
| 2026-04-22 12:46 | -7.72896 | 12.40834 | 26512 ft | 498 kts | 328° |
| 2026-04-22 12:47 | -7.69955 | 12.38973 | 26805 ft | 500 kts | 328° |
| 2026-04-22 12:47 | -7.66994 | 12.37099 | 27102 ft | 503 kts | 328° |
| 2026-04-22 12:47 | -7.64022 | 12.35218 | 27389 ft | 506 kts | 328° |
| 2026-04-22 12:47 | -7.61035 | 12.33329 | 27683 ft | 508 kts | 328° |
| 2026-04-22 12:48 | -7.58031 | 12.31428 | 27964 ft | 510 kts | 328° |
| 2026-04-22 12:48 | -7.55018 | 12.29523 | 28235 ft | 513 kts | 328° |
| 2026-04-22 12:48 | -7.51985 | 12.27605 | 28472 ft | 515 kts | 328° |
| 2026-04-22 12:48 | -7.48941 | 12.25680 | 28720 ft | 517 kts | 328° |
| 2026-04-22 12:49 | -7.45930 | 12.23777 | 28953 ft | 519 kts | 328° |
| 2026-04-22 12:49 | -7.42863 | 12.21838 | 29172 ft | 522 kts | 328° |
| 2026-04-22 12:49 | -7.39768 | 12.19883 | 29289 ft | 527 kts | 328° |
| 2026-04-22 12:49 | -7.36642 | 12.17907 | 29442 ft | 530 kts | 328° |
| 2026-04-22 12:50 | -7.33509 | 12.15928 | 29693 ft | 531 kts | 328° |
| 2026-04-22 12:50 | -7.30380 | 12.13951 | 29967 ft | 531 kts | 328° |
| 2026-04-22 12:50 | -7.27248 | 12.11973 | 30268 ft | 530 kts | 328° |
| 2026-04-22 12:50 | -7.24134 | 12.10006 | 30612 ft | 527 kts | 328° |
| 2026-04-22 12:51 | -7.21037 | 12.08048 | 30957 ft | 525 kts | 328° |
| 2026-04-22 12:51 | -7.18006 | 12.05997 | 31282 ft | 523 kts | 326° |
| 2026-04-22 12:51 | -7.15027 | 12.03898 | 31596 ft | 522 kts | 326° |
| 2026-04-22 12:51 | -7.12069 | 12.01785 | 31980 ft | 519 kts | 326° |
| 2026-04-22 12:52 | -7.09138 | 11.99683 | 32338 ft | 516 kts | 326° |
| 2026-04-22 12:52 | -7.06256 | 11.97620 | 32671 ft | 515 kts | 326° |
| 2026-04-22 12:52 | -7.03338 | 11.95539 | 32971 ft | 513 kts | 326° |
| 2026-04-22 12:52 | -7.00425 | 11.93470 | 33283 ft | 512 kts | 326° |
| 2026-04-22 12:53 | -6.97522 | 11.91412 | 33603 ft | 510 kts | 326° |
| 2026-04-22 12:53 | -6.94625 | 11.89361 | 33888 ft | 509 kts | 326° |
| 2026-04-22 12:53 | -6.91717 | 11.87305 | 33932 ft | 512 kts | 326° |
| 2026-04-22 12:54 | -6.85908 | 11.83197 | 33976 ft | 509 kts | 326° |
| 2026-04-22 12:54 | -6.80128 | 11.79109 | 33978 ft | 506 kts | 326° |
| 2026-04-22 12:55 | -6.74374 | 11.75040 | 33981 ft | 505 kts | 326° |
| 2026-04-22 12:55 | -6.68621 | 11.70972 | 33985 ft | 505 kts | 327° |
| 2026-04-22 12:56 | -6.62868 | 11.66906 | 33982 ft | 506 kts | 327° |
| 2026-04-22 12:56 | -6.57096 | 11.62828 | 33986 ft | 508 kts | 327° |
| 2026-04-22 12:57 | -6.51305 | 11.58739 | 33983 ft | 510 kts | 327° |
| 2026-04-22 12:57 | -6.45492 | 11.54633 | 33986 ft | 511 kts | 327° |
| 2026-04-22 12:58 | -6.39671 | 11.50524 | 33980 ft | 512 kts | 327° |
| 2026-04-22 12:58 | -6.33844 | 11.46411 | 33980 ft | 512 kts | 327° |
| 2026-04-22 12:59 | -6.28049 | 11.42323 | 33971 ft | 512 kts | 327° |
| 2026-04-22 12:59 | -6.22215 | 11.38207 | 33978 ft | 512 kts | 327° |
| 2026-04-22 13:00 | -6.16377 | 11.34090 | 33976 ft | 512 kts | 327° |
| 2026-04-22 13:00 | -6.10547 | 11.29980 | 33987 ft | 512 kts | 328° |
| 2026-04-22 13:01 | -6.04712 | 11.25868 | 33981 ft | 512 kts | 328° |
| 2026-04-22 13:01 | -5.98876 | 11.21756 | 33976 ft | 512 kts | 328° |
| 2026-04-22 13:02 | -5.93040 | 11.17645 | 33980 ft | 513 kts | 328° |
| 2026-04-22 13:02 | -5.87194 | 11.13528 | 33977 ft | 512 kts | 328° |
| 2026-04-22 13:03 | -5.81357 | 11.09418 | 33979 ft | 512 kts | 328° |
| 2026-04-22 13:03 | -5.75548 | 11.05330 | 33982 ft | 512 kts | 328° |
| 2026-04-22 13:04 | -5.69714 | 11.01224 | 33979 ft | 512 kts | 328° |
| 2026-04-22 13:04 | -5.63866 | 10.97110 | 33986 ft | 513 kts | 328° |
| 2026-04-22 13:05 | -5.58011 | 10.92992 | 33989 ft | 515 kts | 327° |
| 2026-04-22 13:05 | -5.52150 | 10.88870 | 33979 ft | 514 kts | 327° |
| 2026-04-22 13:06 | -5.46302 | 10.84759 | 33976 ft | 513 kts | 327° |
| 2026-04-22 13:06 | -5.40465 | 10.80655 | 33979 ft | 512 kts | 327° |
| 2026-04-22 13:07 | -5.34636 | 10.76559 | 33978 ft | 511 kts | 327° |
| 2026-04-22 13:07 | -5.28848 | 10.72491 | 33981 ft | 512 kts | 327° |
| 2026-04-22 13:08 | -5.23024 | 10.68361 | 33988 ft | 512 kts | 327° |
| 2026-04-22 13:08 | -5.17198 | 10.64214 | 33976 ft | 512 kts | 327° |
| 2026-04-22 13:09 | -5.11376 | 10.60074 | 33978 ft | 512 kts | 327° |
| 2026-04-22 13:09 | -5.05563 | 10.55946 | 33987 ft | 512 kts | 327° |
| 2026-04-22 13:10 | -4.99789 | 10.51847 | 33978 ft | 512 kts | 327° |
| 2026-04-22 13:10 | -4.93978 | 10.47722 | 33987 ft | 512 kts | 327° |
| 2026-04-22 13:11 | -4.88168 | 10.43598 | 33972 ft | 512 kts | 327° |
| 2026-04-22 13:11 | -4.82361 | 10.39468 | 33979 ft | 511 kts | 326° |
| 2026-04-22 13:12 | -4.76576 | 10.35331 | 33977 ft | 510 kts | 326° |
| 2026-04-22 13:12 | -4.70800 | 10.31201 | 33978 ft | 510 kts | 326° |
| 2026-04-22 13:13 | -4.65022 | 10.27075 | 33984 ft | 510 kts | 326° |
| 2026-04-22 13:13 | -4.59273 | 10.22985 | 33980 ft | 510 kts | 326° |
| 2026-04-22 13:14 | -4.53477 | 10.18875 | 33978 ft | 510 kts | 327° |
| 2026-04-22 13:14 | -4.47687 | 10.14768 | 33981 ft | 510 kts | 326° |
| 2026-04-22 13:15 | -4.41901 | 10.10660 | 33983 ft | 510 kts | 326° |
| 2026-04-22 13:15 | -4.36109 | 10.06549 | 33983 ft | 510 kts | 326° |
| 2026-04-22 13:16 | -4.30320 | 10.02441 | 33980 ft | 509 kts | 326° |
| 2026-04-22 13:16 | -4.24536 | 9.98336 | 33981 ft | 509 kts | 326° |
| 2026-04-22 13:17 | -4.18756 | 9.94238 | 33981 ft | 509 kts | 326° |
| 2026-04-22 13:17 | -4.13002 | 9.90156 | 33981 ft | 509 kts | 326° |
| 2026-04-22 13:18 | -4.07220 | 9.86054 | 33983 ft | 509 kts | 326° |
| 2026-04-22 13:18 | -4.01432 | 9.81948 | 33977 ft | 509 kts | 326° |
| 2026-04-22 13:19 | -3.95641 | 9.77840 | 33981 ft | 510 kts | 326° |
| 2026-04-22 13:19 | -3.89851 | 9.73734 | 33978 ft | 510 kts | 326° |
| 2026-04-22 13:20 | -3.84061 | 9.69629 | 33979 ft | 510 kts | 326° |
| 2026-04-22 13:20 | -3.78267 | 9.65521 | 33983 ft | 510 kts | 326° |
| 2026-04-22 13:21 | -3.72508 | 9.61437 | 33986 ft | 510 kts | 326° |
| 2026-04-22 13:21 | -3.66708 | 9.57322 | 33982 ft | 509 kts | 326° |
| 2026-04-22 13:22 | -3.60922 | 9.53218 | 33981 ft | 509 kts | 326° |
| 2026-04-22 13:22 | -3.55151 | 9.49125 | 33980 ft | 509 kts | 326° |
| 2026-04-22 13:23 | -3.49404 | 9.45051 | 33982 ft | 509 kts | 326° |
| 2026-04-22 13:23 | -3.43633 | 9.40958 | 33981 ft | 509 kts | 326° |
| 2026-04-22 13:24 | -3.37849 | 9.36858 | 33983 ft | 509 kts | 326° |
| 2026-04-22 13:24 | -3.32059 | 9.32758 | 33981 ft | 509 kts | 326° |
| 2026-04-22 13:25 | -3.26277 | 9.28671 | 33980 ft | 508 kts | 326° |
| 2026-04-22 13:25 | -3.20500 | 9.24586 | 33980 ft | 508 kts | 326° |
| 2026-04-22 13:26 | -3.14724 | 9.20501 | 33980 ft | 508 kts | 326° |
| 2026-04-22 13:26 | -3.09927 | 9.17108 | 33983 ft | 508 kts | 326° |
| 2026-04-22 13:27 | -3.03218 | 9.12363 | 33982 ft | 508 kts | 326° |
| 2026-04-22 13:27 | -2.97446 | 9.08282 | 33986 ft | 507 kts | 326° |
| 2026-04-22 13:28 | -2.92615 | 9.04867 | 33977 ft | 507 kts | 326° |
| 2026-04-22 13:28 | -2.86858 | 9.00796 | 33980 ft | 506 kts | 326° |
| 2026-04-22 13:29 | -2.81106 | 8.96730 | 33981 ft | 506 kts | 326° |
| 2026-04-22 13:29 | -2.75390 | 8.92692 | 33984 ft | 506 kts | 326° |
| 2026-04-22 13:30 | -2.69636 | 8.88627 | 33983 ft | 506 kts | 326° |
| 2026-04-22 13:30 | -2.63885 | 8.84563 | 33984 ft | 506 kts | 326° |
| 2026-04-22 13:31 | -2.58131 | 8.80496 | 33982 ft | 507 kts | 326° |
| 2026-04-22 13:31 | -2.52363 | 8.76420 | 33982 ft | 507 kts | 326° |
| 2026-04-22 13:32 | -2.46580 | 8.72335 | 33981 ft | 508 kts | 326° |
| 2026-04-22 13:32 | -2.40844 | 8.68282 | 33979 ft | 508 kts | 326° |
| 2026-04-22 13:33 | -2.35072 | 8.64205 | 33980 ft | 508 kts | 326° |
| 2026-04-22 13:33 | -2.29307 | 8.60133 | 33980 ft | 507 kts | 326° |
| 2026-04-22 13:34 | -2.23543 | 8.56061 | 33974 ft | 507 kts | 326° |
| 2026-04-22 13:34 | -2.17776 | 8.51989 | 33979 ft | 507 kts | 326° |
| 2026-04-22 13:35 | -2.12017 | 8.47921 | 33984 ft | 507 kts | 326° |
| 2026-04-22 13:35 | -2.06249 | 8.43848 | 33980 ft | 507 kts | 326° |
| 2026-04-22 13:36 | -2.00478 | 8.39781 | 33981 ft | 508 kts | 326° |
| 2026-04-22 13:36 | -1.94740 | 8.35737 | 33979 ft | 508 kts | 326° |
| 2026-04-22 13:37 | -1.88963 | 8.31663 | 33978 ft | 507 kts | 326° |
| 2026-04-22 13:37 | -1.83198 | 8.27597 | 33977 ft | 507 kts | 326° |
| 2026-04-22 13:38 | -1.77435 | 8.23533 | 33976 ft | 507 kts | 326° |
| 2026-04-22 13:38 | -1.68783 | 8.17436 | 33978 ft | 507 kts | 326° |
| 2026-04-22 13:39 | -1.63016 | 8.13374 | 33979 ft | 507 kts | 326° |
| 2026-04-22 13:39 | -1.57286 | 8.09338 | 33978 ft | 507 kts | 326° |
| 2026-04-22 13:40 | -1.51522 | 8.05277 | 33978 ft | 507 kts | 326° |
| 2026-04-22 13:40 | -1.45753 | 8.01212 | 33979 ft | 507 kts | 326° |
| 2026-04-22 13:41 | -1.39984 | 7.97147 | 33977 ft | 507 kts | 326° |
| 2026-04-22 13:41 | -1.34221 | 7.93087 | 33979 ft | 506 kts | 326° |
| 2026-04-22 13:42 | -1.28509 | 7.89049 | 33978 ft | 506 kts | 326° |
| 2026-04-22 13:42 | -1.22769 | 7.84979 | 33976 ft | 506 kts | 326° |
| 2026-04-22 13:43 | -1.17028 | 7.80908 | 33977 ft | 505 kts | 326° |
| 2026-04-22 13:43 | -1.11287 | 7.76840 | 33972 ft | 505 kts | 326° |
| 2026-04-22 13:44 | -1.05565 | 7.72786 | 33975 ft | 504 kts | 326° |
| 2026-04-22 13:44 | -0.99837 | 7.68733 | 33975 ft | 504 kts | 326° |
| 2026-04-22 13:45 | -0.94110 | 7.64705 | 33975 ft | 504 kts | 326° |
| 2026-04-22 13:45 | -0.88382 | 7.60676 | 33973 ft | 504 kts | 326° |
| 2026-04-22 13:46 | -0.82645 | 7.56638 | 33973 ft | 504 kts | 326° |
| 2026-04-22 13:46 | -0.76897 | 7.52621 | 33977 ft | 504 kts | 326° |
| 2026-04-22 13:47 | -0.71137 | 7.48620 | 33977 ft | 504 kts | 326° |
| 2026-04-22 13:47 | -0.65402 | 7.44573 | 33975 ft | 505 kts | 326° |
| 2026-04-22 13:48 | -0.59678 | 7.40500 | 33976 ft | 505 kts | 326° |
| 2026-04-22 13:48 | -0.53957 | 7.36437 | 33975 ft | 505 kts | 326° |
| 2026-04-22 13:49 | -0.48261 | 7.32399 | 33973 ft | 505 kts | 326° |
| 2026-04-22 13:49 | -0.42530 | 7.28336 | 33972 ft | 505 kts | 326° |
| 2026-04-22 13:50 | -0.36797 | 7.24287 | 33973 ft | 504 kts | 326° |
| 2026-04-22 13:50 | -0.31062 | 7.20250 | 33973 ft | 504 kts | 326° |
| 2026-04-22 13:51 | -0.25323 | 7.16208 | 33970 ft | 504 kts | 326° |
| 2026-04-22 13:51 | -0.19620 | 7.12187 | 33970 ft | 504 kts | 326° |
| 2026-04-22 13:52 | -0.13889 | 7.08147 | 33970 ft | 504 kts | 326° |
| 2026-04-22 13:52 | -0.08151 | 7.04101 | 33970 ft | 504 kts | 326° |
| 2026-04-22 13:53 | -0.02409 | 7.00052 | 33970 ft | 504 kts | 326° |
| 2026-04-22 13:53 | 0.03337 | 6.96002 | 33964 ft | 505 kts | 326° |
| 2026-04-22 13:54 | 0.09046 | 6.91977 | 33970 ft | 506 kts | 326° |
| 2026-04-22 13:54 | 0.14797 | 6.87922 | 33977 ft | 506 kts | 326° |
| 2026-04-22 13:55 | 0.20553 | 6.83863 | 33985 ft | 507 kts | 326° |
| 2026-04-22 13:55 | 0.26319 | 6.79797 | 33994 ft | 507 kts | 326° |
| 2026-04-22 13:56 | 0.32089 | 6.75728 | 34000 ft | 507 kts | 326° |
| 2026-04-22 13:56 | 0.37348 | 6.71027 | 33997 ft | 510 kts | 310° |
| 2026-04-22 13:57 | 0.41116 | 6.65028 | 34002 ft | 513 kts | 295° |
| 2026-04-22 13:57 | 0.43991 | 6.58504 | 33994 ft | 513 kts | 296° |
| 2026-04-22 13:58 | 0.47003 | 6.52032 | 33958 ft | 513 kts | 296° |
| 2026-04-22 13:58 | 0.50027 | 6.45572 | 33960 ft | 513 kts | 296° |
| 2026-04-22 13:59 | 0.53042 | 6.39111 | 33959 ft | 513 kts | 296° |
| 2026-04-22 13:59 | 0.56033 | 6.32688 | 33964 ft | 513 kts | 296° |
| 2026-04-22 14:00 | 0.59039 | 6.26228 | 33968 ft | 512 kts | 296° |
| 2026-04-22 14:00 | 0.62045 | 6.19771 | 33958 ft | 512 kts | 296° |
| 2026-04-22 14:01 | 0.65052 | 6.13314 | 33960 ft | 512 kts | 296° |
| 2026-04-22 14:01 | 0.68055 | 6.06862 | 33962 ft | 512 kts | 296° |
| 2026-04-22 14:02 | 0.71058 | 6.00413 | 33961 ft | 512 kts | 296° |
| 2026-04-22 14:02 | 0.74061 | 5.93961 | 33962 ft | 511 kts | 296° |
| 2026-04-22 14:03 | 0.77060 | 5.87518 | 33970 ft | 511 kts | 296° |
| 2026-04-22 14:03 | 0.80036 | 5.81124 | 33963 ft | 511 kts | 296° |
| 2026-04-22 14:04 | 0.83028 | 5.74695 | 33959 ft | 510 kts | 296° |
| 2026-04-22 14:04 | 0.86016 | 5.68275 | 33964 ft | 509 kts | 296° |
| 2026-04-22 14:05 | 0.89005 | 5.61851 | 33964 ft | 509 kts | 296° |
| 2026-04-22 14:06 | 0.93845 | 5.52417 | 33957 ft | 508 kts | 307° |
| 2026-04-22 14:06 | 0.98535 | 5.47168 | 33966 ft | 506 kts | 321° |
| 2026-04-22 14:07 | 1.03991 | 5.42798 | 33962 ft | 506 kts | 323° |
| 2026-04-22 14:07 | 1.09517 | 5.38444 | 33963 ft | 506 kts | 323° |
| 2026-04-22 14:08 | 1.15027 | 5.34047 | 33968 ft | 506 kts | 322° |
| 2026-04-22 14:08 | 1.20458 | 5.29675 | 33960 ft | 494 kts | 322° |
| 2026-04-22 14:09 | 1.25765 | 5.25391 | 33963 ft | 492 kts | 322° |
| 2026-04-22 14:09 | 1.31110 | 5.21079 | 33968 ft | 495 kts | 322° |
| 2026-04-22 14:10 | 1.36486 | 5.16745 | 33972 ft | 497 kts | 322° |
| 2026-04-22 14:10 | 1.41879 | 5.12398 | 33966 ft | 498 kts | 322° |
| 2026-04-22 14:11 | 1.47263 | 5.08056 | 33961 ft | 497 kts | 322° |
| 2026-04-22 14:11 | 1.52644 | 5.03719 | 33961 ft | 496 kts | 322° |
| 2026-04-22 14:12 | 1.58020 | 4.99385 | 33961 ft | 496 kts | 321° |
| 2026-04-22 14:12 | 1.63364 | 4.95075 | 33966 ft | 497 kts | 322° |
| 2026-04-22 14:13 | 1.68745 | 4.90734 | 33968 ft | 496 kts | 322° |
| 2026-04-22 14:13 | 1.73238 | 4.87111 | 33959 ft | 495 kts | 322° |
| 2026-04-22 14:14 | 1.79442 | 4.82107 | 33959 ft | 492 kts | 322° |
| 2026-04-22 14:14 | 1.84777 | 4.77804 | 33961 ft | 491 kts | 322° |
| 2026-04-22 14:15 | 1.89212 | 4.74226 | 33961 ft | 491 kts | 322° |
| 2026-04-22 14:15 | 1.94531 | 4.69936 | 33961 ft | 492 kts | 322° |
| 2026-04-22 14:16 | 1.99873 | 4.65626 | 33967 ft | 494 kts | 322° |
| 2026-04-22 14:16 | 2.05225 | 4.61307 | 33964 ft | 496 kts | 322° |
| 2026-04-22 14:17 | 2.10566 | 4.56997 | 33964 ft | 496 kts | 322° |
| 2026-04-22 14:17 | 2.15927 | 4.52672 | 33964 ft | 493 kts | 322° |
| 2026-04-22 14:18 | 2.21259 | 4.48367 | 33961 ft | 490 kts | 322° |
| 2026-04-22 14:18 | 2.26552 | 4.44094 | 33960 ft | 487 kts | 322° |
| 2026-04-22 14:19 | 2.31824 | 4.39839 | 33961 ft | 489 kts | 322° |
| 2026-04-22 14:19 | 2.37159 | 4.35534 | 33964 ft | 495 kts | 321° |
| 2026-04-22 14:20 | 2.45202 | 4.29039 | 33964 ft | 499 kts | 322° |
| 2026-04-22 14:20 | 2.50608 | 4.24673 | 33956 ft | 498 kts | 322° |
| 2026-04-22 14:21 | 2.58663 | 4.18167 | 33941 ft | 495 kts | 321° |
| 2026-04-22 14:22 | 2.66717 | 4.11661 | 33958 ft | 497 kts | 321° |
| 2026-04-22 14:23 | 2.74823 | 4.05112 | 33960 ft | 501 kts | 321° |
| 2026-04-22 14:23 | 2.80228 | 4.00744 | 33961 ft | 503 kts | 321° |
| 2026-04-22 14:24 | 2.85717 | 3.96308 | 33960 ft | 504 kts | 321° |
| 2026-04-22 14:24 | 2.91139 | 3.91926 | 33958 ft | 504 kts | 321° |
| 2026-04-22 14:25 | 2.96592 | 3.87518 | 33957 ft | 503 kts | 321° |
| 2026-04-22 14:25 | 3.02028 | 3.83124 | 33955 ft | 502 kts | 321° |
| 2026-04-22 14:26 | 3.07463 | 3.78727 | 33937 ft | 503 kts | 322° |
| 2026-04-22 14:26 | 3.12920 | 3.74315 | 33962 ft | 505 kts | 322° |
| 2026-04-22 14:27 | 3.18403 | 3.69882 | 33964 ft | 508 kts | 322° |
| 2026-04-22 14:27 | 3.23915 | 3.65423 | 33962 ft | 510 kts | 322° |
| 2026-04-22 14:28 | 3.29437 | 3.60955 | 33962 ft | 511 kts | 322° |
| 2026-04-22 14:28 | 3.34925 | 3.56514 | 33958 ft | 510 kts | 322° |
| 2026-04-22 14:29 | 3.40475 | 3.52022 | 33954 ft | 509 kts | 322° |
| 2026-04-22 14:29 | 3.45980 | 3.47567 | 33955 ft | 508 kts | 322° |
| 2026-04-22 14:30 | 3.51472 | 3.43121 | 33958 ft | 507 kts | 322° |
| 2026-04-22 14:30 | 3.56928 | 3.38703 | 33959 ft | 507 kts | 322° |
| 2026-04-22 14:31 | 3.62405 | 3.34268 | 33962 ft | 507 kts | 322° |
| 2026-04-22 14:31 | 3.67894 | 3.29822 | 33959 ft | 507 kts | 322° |
| 2026-04-22 14:32 | 3.73379 | 3.25379 | 33953 ft | 507 kts | 322° |
| 2026-04-22 14:32 | 3.78877 | 3.20925 | 33958 ft | 508 kts | 322° |
| 2026-04-22 14:33 | 3.84366 | 3.16477 | 33955 ft | 508 kts | 322° |
| 2026-04-22 14:33 | 3.89861 | 3.12022 | 33960 ft | 508 kts | 322° |
| 2026-04-22 14:34 | 3.95353 | 3.07568 | 33961 ft | 508 kts | 321° |
| 2026-04-22 14:34 | 4.00249 | 3.02459 | 33964 ft | 510 kts | 308° |
| 2026-04-22 14:35 | 4.03935 | 2.96461 | 33966 ft | 510 kts | 298° |
| 2026-04-22 14:35 | 4.07127 | 2.90119 | 33963 ft | 510 kts | 297° |
| 2026-04-22 14:36 | 4.10326 | 2.83776 | 33957 ft | 510 kts | 297° |
| 2026-04-22 14:36 | 4.13553 | 2.77465 | 33959 ft | 509 kts | 298° |
| 2026-04-22 14:37 | 4.16802 | 2.71154 | 33958 ft | 509 kts | 298° |
| 2026-04-22 14:37 | 4.20050 | 2.64851 | 33963 ft | 509 kts | 298° |
| 2026-04-22 14:38 | 4.23295 | 2.58542 | 33958 ft | 509 kts | 298° |
| 2026-04-22 14:38 | 4.26534 | 2.52242 | 33958 ft | 509 kts | 298° |
| 2026-04-22 14:39 | 4.29775 | 2.45936 | 33957 ft | 509 kts | 298° |
| 2026-04-22 14:39 | 4.33010 | 2.39640 | 33960 ft | 508 kts | 297° |
| 2026-04-22 14:40 | 4.37864 | 2.30192 | 33961 ft | 508 kts | 297° |
| 2026-04-22 14:40 | 4.41083 | 2.23923 | 33961 ft | 509 kts | 297° |
| 2026-04-22 14:41 | 4.44327 | 2.17605 | 33963 ft | 510 kts | 297° |
| 2026-04-22 14:41 | 4.47571 | 2.11284 | 33983 ft | 511 kts | 297° |
| 2026-04-22 14:42 | 4.50837 | 2.04921 | 34291 ft | 513 kts | 297° |
| 2026-04-22 14:42 | 4.52469 | 2.01740 | 34622 ft | 510 kts | 297° |
| 2026-04-22 14:42 | 4.54087 | 1.98585 | 34940 ft | 508 kts | 297° |
| 2026-04-22 14:43 | 4.55699 | 1.95442 | 35221 ft | 506 kts | 297° |
| 2026-04-22 14:43 | 4.57308 | 1.92305 | 35466 ft | 506 kts | 297° |
| 2026-04-22 14:43 | 4.58915 | 1.89171 | 35695 ft | 506 kts | 297° |
| 2026-04-22 14:43 | 4.60531 | 1.86021 | 35725 ft | 508 kts | 297° |
| 2026-04-22 14:44 | 4.63769 | 1.79703 | 35811 ft | 510 kts | 297° |
| 2026-04-22 14:44 | 4.67001 | 1.73395 | 35813 ft | 508 kts | 297° |
| 2026-04-22 14:45 | 4.70200 | 1.67153 | 35817 ft | 506 kts | 297° |
| 2026-04-22 14:45 | 4.73413 | 1.60879 | 35817 ft | 505 kts | 297° |
| 2026-04-22 14:46 | 4.76621 | 1.54614 | 35815 ft | 505 kts | 297° |
| 2026-04-22 14:46 | 4.79835 | 1.48334 | 35813 ft | 507 kts | 297° |
| 2026-04-22 14:47 | 4.83058 | 1.42036 | 35829 ft | 509 kts | 297° |
| 2026-04-22 14:47 | 4.86295 | 1.35708 | 35813 ft | 511 kts | 297° |
| 2026-04-22 14:48 | 4.89548 | 1.29356 | 35818 ft | 512 kts | 297° |
| 2026-04-22 14:48 | 4.92803 | 1.23000 | 35816 ft | 513 kts | 297° |
| 2026-04-22 14:49 | 4.96056 | 1.16643 | 35809 ft | 511 kts | 297° |
| 2026-04-22 14:49 | 4.99260 | 1.10380 | 35803 ft | 504 kts | 297° |
| 2026-04-22 14:50 | 5.02461 | 1.04122 | 35816 ft | 504 kts | 297° |
| 2026-04-22 14:50 | 5.05663 | 0.97857 | 35814 ft | 505 kts | 297° |
| 2026-04-22 14:51 | 5.08867 | 0.91589 | 35816 ft | 505 kts | 297° |
| 2026-04-22 14:51 | 5.12081 | 0.85298 | 35814 ft | 506 kts | 297° |
| 2026-04-22 14:52 | 5.15273 | 0.79048 | 35815 ft | 507 kts | 297° |
| 2026-04-22 14:52 | 5.18489 | 0.72751 | 35820 ft | 507 kts | 297° |
| 2026-04-22 14:53 | 5.21710 | 0.66437 | 35819 ft | 507 kts | 297° |
| 2026-04-22 14:53 | 5.24929 | 0.60123 | 35821 ft | 507 kts | 297° |
| 2026-04-22 14:54 | 5.28140 | 0.53823 | 35821 ft | 507 kts | 297° |
| 2026-04-22 14:54 | 5.31351 | 0.47520 | 35821 ft | 507 kts | 297° |
| 2026-04-22 14:55 | 5.34538 | 0.41263 | 35823 ft | 506 kts | 296° |
| 2026-04-22 14:55 | 5.37737 | 0.34981 | 35821 ft | 505 kts | 296° |
| 2026-04-22 14:56 | 5.40935 | 0.28697 | 35824 ft | 505 kts | 296° |
| 2026-04-22 14:56 | 5.44126 | 0.22425 | 35825 ft | 504 kts | 296° |
| 2026-04-22 14:57 | 5.47316 | 0.16156 | 35824 ft | 504 kts | 296° |
| 2026-04-22 14:57 | 5.50506 | 0.09881 | 35832 ft | 504 kts | 296° |
| 2026-04-22 14:58 | 5.53676 | 0.03646 | 35831 ft | 504 kts | 296° |
| 2026-04-22 14:58 | 5.56865 | -0.02630 | 35826 ft | 505 kts | 296° |
| 2026-04-22 14:59 | 5.60059 | -0.08920 | 35833 ft | 506 kts | 296° |
| 2026-04-22 14:59 | 5.63321 | -0.15189 | 35828 ft | 507 kts | 300° |
| 2026-04-22 15:00 | 5.67379 | -0.20993 | 35837 ft | 508 kts | 307° |
| 2026-04-22 15:00 | 5.71689 | -0.26636 | 35840 ft | 509 kts | 307° |
| 2026-04-22 15:01 | 5.75976 | -0.32296 | 35839 ft | 508 kts | 307° |
| 2026-04-22 15:01 | 5.80224 | -0.37964 | 35833 ft | 507 kts | 307° |
| 2026-04-22 15:02 | 5.84458 | -0.43633 | 35835 ft | 506 kts | 307° |
| 2026-04-22 15:02 | 5.88655 | -0.49251 | 35841 ft | 505 kts | 307° |
| 2026-04-22 15:03 | 5.92876 | -0.54901 | 35837 ft | 505 kts | 307° |
| 2026-04-22 15:03 | 5.97094 | -0.60546 | 35850 ft | 504 kts | 307° |
| 2026-04-22 15:04 | 6.01304 | -0.66183 | 35848 ft | 505 kts | 307° |
| 2026-04-22 15:04 | 6.05495 | -0.71796 | 35848 ft | 504 kts | 307° |
| 2026-04-22 15:05 | 6.08999 | -0.76491 | 35856 ft | 504 kts | 307° |
| 2026-04-22 15:05 | 6.13201 | -0.82122 | 35857 ft | 503 kts | 307° |
| 2026-04-22 15:06 | 6.17397 | -0.87747 | 35852 ft | 502 kts | 307° |
| 2026-04-22 15:06 | 6.21578 | -0.93354 | 35851 ft | 501 kts | 307° |
| 2026-04-22 15:07 | 6.25759 | -0.98949 | 35862 ft | 500 kts | 307° |
| 2026-04-22 15:07 | 6.29948 | -1.04517 | 35862 ft | 499 kts | 307° |
| 2026-04-22 15:08 | 6.34135 | -1.10080 | 35862 ft | 499 kts | 307° |
| 2026-04-22 15:08 | 6.38320 | -1.15650 | 35863 ft | 499 kts | 307° |
| 2026-04-22 15:09 | 6.42511 | -1.21234 | 35872 ft | 501 kts | 307° |
| 2026-04-22 15:09 | 6.46690 | -1.26802 | 35874 ft | 502 kts | 307° |
| 2026-04-22 15:10 | 6.50900 | -1.32414 | 35876 ft | 503 kts | 307° |
| 2026-04-22 15:10 | 6.55119 | -1.38039 | 35881 ft | 503 kts | 307° |
| 2026-04-22 15:11 | 6.59327 | -1.43651 | 35880 ft | 502 kts | 307° |
| 2026-04-22 15:11 | 6.63531 | -1.49261 | 35885 ft | 501 kts | 307° |
| 2026-04-22 15:12 | 6.67723 | -1.54856 | 35889 ft | 501 kts | 307° |
| 2026-04-22 15:12 | 6.72008 | -1.60368 | 35879 ft | 499 kts | 313° |
| 2026-04-22 15:13 | 6.76796 | -1.65427 | 35889 ft | 498 kts | 314° |
| 2026-04-22 15:13 | 6.81620 | -1.70433 | 35882 ft | 498 kts | 314° |
| 2026-04-22 15:14 | 6.86421 | -1.75464 | 35885 ft | 497 kts | 314° |
| 2026-04-22 15:14 | 6.91194 | -1.80501 | 35882 ft | 496 kts | 314° |
| 2026-04-22 15:15 | 6.95922 | -1.85500 | 35873 ft | 496 kts | 314° |
| 2026-04-22 15:15 | 7.00685 | -1.90535 | 35871 ft | 495 kts | 314° |
| 2026-04-22 15:16 | 7.05437 | -1.95557 | 35872 ft | 495 kts | 314° |
| 2026-04-22 15:16 | 7.10183 | -2.00574 | 35875 ft | 495 kts | 314° |
| 2026-04-22 15:17 | 7.14931 | -2.05594 | 35866 ft | 495 kts | 314° |
| 2026-04-22 15:17 | 7.19658 | -2.10595 | 35867 ft | 496 kts | 314° |
| 2026-04-22 15:18 | 7.24423 | -2.15637 | 35866 ft | 497 kts | 314° |
| 2026-04-22 15:18 | 7.29190 | -2.20683 | 35863 ft | 497 kts | 314° |
| 2026-04-22 15:19 | 7.33956 | -2.25732 | 35864 ft | 498 kts | 314° |
| 2026-04-22 15:19 | 7.38733 | -2.30792 | 35861 ft | 498 kts | 314° |
| 2026-04-22 15:20 | 7.43499 | -2.35859 | 35865 ft | 498 kts | 314° |
| 2026-04-22 15:20 | 7.48264 | -2.40933 | 35874 ft | 499 kts | 314° |
| 2026-04-22 15:21 | 7.53044 | -2.46024 | 35869 ft | 500 kts | 314° |
| 2026-04-22 15:21 | 7.57830 | -2.51122 | 35868 ft | 500 kts | 313° |
| 2026-04-22 15:22 | 7.62599 | -2.56203 | 35857 ft | 498 kts | 313° |
| 2026-04-22 15:22 | 7.67329 | -2.61245 | 35857 ft | 496 kts | 313° |
| 2026-04-22 15:23 | 7.72067 | -2.66297 | 35854 ft | 495 kts | 313° |
| 2026-04-22 15:23 | 7.76784 | -2.71329 | 35854 ft | 495 kts | 313° |
| 2026-04-22 15:24 | 7.81523 | -2.76387 | 35862 ft | 496 kts | 313° |
| 2026-04-22 15:24 | 7.86278 | -2.81455 | 35864 ft | 498 kts | 313° |
| 2026-04-22 15:25 | 7.91088 | -2.86497 | 35859 ft | 499 kts | 314° |
| 2026-04-22 15:25 | 7.95914 | -2.91544 | 35864 ft | 500 kts | 313° |
| 2026-04-22 15:26 | 8.00728 | -2.96596 | 35863 ft | 499 kts | 314° |
| 2026-04-22 15:26 | 8.05527 | -3.01654 | 35850 ft | 499 kts | 313° |
| 2026-04-22 15:27 | 8.10242 | -3.06710 | 35864 ft | 497 kts | 314° |
| 2026-04-22 15:27 | 8.14972 | -3.11798 | 35853 ft | 496 kts | 314° |
| 2026-04-22 15:28 | 8.19694 | -3.16865 | 35855 ft | 494 kts | 314° |
| 2026-04-22 15:28 | 8.24402 | -3.21914 | 35854 ft | 493 kts | 314° |
| 2026-04-22 15:29 | 8.29097 | -3.26951 | 35859 ft | 492 kts | 314° |
| 2026-04-22 15:30 | 8.36108 | -3.34478 | 35848 ft | 493 kts | 313° |
| 2026-04-22 15:30 | 8.40812 | -3.39532 | 35856 ft | 494 kts | 313° |
| 2026-04-22 15:31 | 8.45525 | -3.44596 | 35854 ft | 496 kts | 314° |
| 2026-04-22 15:31 | 8.50257 | -3.49683 | 35847 ft | 497 kts | 314° |
| 2026-04-22 15:32 | 8.54999 | -3.54785 | 35843 ft | 498 kts | 314° |
| 2026-04-22 15:32 | 8.59742 | -3.59890 | 35839 ft | 498 kts | 314° |
| 2026-04-22 15:33 | 8.64451 | -3.64962 | 35840 ft | 497 kts | 314° |
| 2026-04-22 15:33 | 8.69179 | -3.70056 | 35831 ft | 496 kts | 314° |
| 2026-04-22 15:34 | 8.73901 | -3.75145 | 35839 ft | 495 kts | 314° |
| 2026-04-22 15:34 | 8.78604 | -3.80217 | 35827 ft | 494 kts | 314° |
| 2026-04-22 15:35 | 8.82507 | -3.84427 | 35838 ft | 493 kts | 314° |
| 2026-04-22 15:35 | 8.87980 | -3.90332 | 35832 ft | 492 kts | 314° |
| 2026-04-22 15:36 | 8.92653 | -3.95376 | 35822 ft | 491 kts | 314° |
| 2026-04-22 15:36 | 8.97321 | -4.00417 | 35827 ft | 490 kts | 314° |
| 2026-04-22 15:37 | 9.01984 | -4.05454 | 35819 ft | 491 kts | 313° |
| 2026-04-22 15:37 | 9.06651 | -4.10499 | 35823 ft | 491 kts | 314° |
| 2026-04-22 15:38 | 9.11294 | -4.15519 | 35825 ft | 491 kts | 313° |
| 2026-04-22 15:38 | 9.18291 | -4.23088 | 35821 ft | 491 kts | 314° |
| 2026-04-22 15:39 | 9.22953 | -4.28135 | 35818 ft | 491 kts | 314° |
| 2026-04-22 15:39 | 9.27616 | -4.33183 | 35820 ft | 491 kts | 313° |
| 2026-04-22 15:40 | 9.32281 | -4.38237 | 35819 ft | 491 kts | 313° |
| 2026-04-22 15:40 | 9.36947 | -4.43293 | 35813 ft | 491 kts | 313° |
| 2026-04-22 15:41 | 9.41612 | -4.48351 | 35813 ft | 491 kts | 313° |
| 2026-04-22 15:41 | 9.46275 | -4.53409 | 35819 ft | 491 kts | 313° |
| 2026-04-22 15:42 | 9.50897 | -4.58425 | 35813 ft | 490 kts | 313° |
| 2026-04-22 15:42 | 9.55540 | -4.63465 | 35805 ft | 489 kts | 313° |
| 2026-04-22 15:43 | 9.60174 | -4.68497 | 35812 ft | 488 kts | 313° |
| 2026-04-22 15:43 | 9.64803 | -4.73526 | 35821 ft | 488 kts | 313° |
| 2026-04-22 15:44 | 9.69445 | -4.78573 | 35809 ft | 488 kts | 313° |
| 2026-04-22 15:44 | 9.74079 | -4.83612 | 35815 ft | 488 kts | 313° |
| 2026-04-22 15:45 | 9.78707 | -4.88648 | 35819 ft | 488 kts | 313° |
| 2026-04-22 15:45 | 9.83332 | -4.93680 | 35820 ft | 486 kts | 313° |
| 2026-04-22 15:46 | 9.87943 | -4.98702 | 35802 ft | 486 kts | 313° |
| 2026-04-22 15:46 | 9.92518 | -5.03687 | 35819 ft | 486 kts | 313° |
| 2026-04-22 15:47 | 9.97126 | -5.08710 | 35812 ft | 486 kts | 313° |
| 2026-04-22 15:47 | 10.01740 | -5.13741 | 35812 ft | 488 kts | 313° |
| 2026-04-22 15:48 | 10.06373 | -5.18787 | 35825 ft | 489 kts | 313° |
| 2026-04-22 15:48 | 10.11017 | -5.23848 | 35807 ft | 490 kts | 313° |
| 2026-04-22 15:49 | 10.15662 | -5.28915 | 35812 ft | 490 kts | 313° |
| 2026-04-22 15:49 | 10.20267 | -5.33941 | 35822 ft | 488 kts | 313° |
| 2026-04-22 15:50 | 10.24886 | -5.38984 | 35808 ft | 487 kts | 313° |
| 2026-04-22 15:50 | 10.29493 | -5.44017 | 35810 ft | 485 kts | 313° |
| 2026-04-22 15:51 | 10.34087 | -5.49039 | 35812 ft | 484 kts | 313° |
| 2026-04-22 15:51 | 10.38670 | -5.54048 | 35814 ft | 484 kts | 313° |
| 2026-04-22 15:52 | 10.43259 | -5.59060 | 35814 ft | 484 kts | 313° |
| 2026-04-22 15:52 | 10.47819 | -5.64041 | 35815 ft | 484 kts | 313° |
| 2026-04-22 15:53 | 10.52409 | -5.69059 | 35803 ft | 485 kts | 312° |
| 2026-04-22 15:53 | 10.57010 | -5.74092 | 35812 ft | 486 kts | 312° |
| 2026-04-22 15:54 | 10.61614 | -5.79133 | 35810 ft | 487 kts | 312° |
| 2026-04-22 15:54 | 10.66225 | -5.84182 | 35809 ft | 488 kts | 312° |
| 2026-04-22 15:55 | 10.70838 | -5.89237 | 35811 ft | 488 kts | 312° |
| 2026-04-22 15:55 | 10.75461 | -5.94305 | 35806 ft | 488 kts | 312° |
| 2026-04-22 15:56 | 10.79295 | -5.98509 | 35810 ft | 488 kts | 312° |
| 2026-04-22 15:56 | 10.83909 | -6.03572 | 35801 ft | 487 kts | 312° |
| 2026-04-22 15:57 | 10.88512 | -6.08625 | 35801 ft | 487 kts | 312° |
| 2026-04-22 15:57 | 10.93112 | -6.13676 | 35799 ft | 485 kts | 312° |
| 2026-04-22 15:58 | 10.97697 | -6.18717 | 35811 ft | 486 kts | 312° |
| 2026-04-22 15:58 | 11.02291 | -6.23773 | 35802 ft | 485 kts | 312° |
| 2026-04-22 15:59 | 11.06869 | -6.28814 | 35802 ft | 485 kts | 312° |
| 2026-04-22 15:59 | 11.11442 | -6.33851 | 35804 ft | 484 kts | 312° |
| 2026-04-22 16:00 | 11.16006 | -6.38881 | 35803 ft | 483 kts | 312° |
| 2026-04-22 16:00 | 11.20531 | -6.43871 | 35803 ft | 483 kts | 312° |
| 2026-04-22 16:01 | 11.25099 | -6.48910 | 35805 ft | 484 kts | 312° |
| 2026-04-22 16:01 | 11.29675 | -6.53961 | 35803 ft | 486 kts | 312° |
| 2026-04-22 16:02 | 11.34269 | -6.59034 | 35805 ft | 487 kts | 312° |
| 2026-04-22 16:02 | 11.38874 | -6.64122 | 35801 ft | 488 kts | 312° |
| 2026-04-22 16:03 | 11.43484 | -6.69219 | 35803 ft | 489 kts | 312° |
| 2026-04-22 16:03 | 11.48093 | -6.74316 | 35801 ft | 489 kts | 312° |
| 2026-04-22 16:04 | 11.52677 | -6.79389 | 35804 ft | 489 kts | 312° |
| 2026-04-22 16:04 | 11.57283 | -6.84489 | 35807 ft | 488 kts | 312° |
| 2026-04-22 16:05 | 11.61877 | -6.89577 | 35810 ft | 487 kts | 311° |
| 2026-04-22 16:05 | 11.66460 | -6.94657 | 35800 ft | 486 kts | 311° |
| 2026-04-22 16:06 | 11.71036 | -6.99731 | 35805 ft | 485 kts | 311° |
| 2026-04-22 16:06 | 11.75596 | -7.04791 | 35808 ft | 484 kts | 311° |
| 2026-04-22 16:07 | 11.80159 | -7.09857 | 35809 ft | 484 kts | 311° |
| 2026-04-22 16:07 | 11.84715 | -7.14917 | 35813 ft | 484 kts | 311° |
| 2026-04-22 16:08 | 11.89268 | -7.19976 | 35816 ft | 484 kts | 311° |
| 2026-04-22 16:08 | 11.93829 | -7.25047 | 35813 ft | 485 kts | 311° |
| 2026-04-22 16:09 | 11.98400 | -7.30133 | 35821 ft | 486 kts | 311° |
| 2026-04-22 16:09 | 12.02950 | -7.35197 | 35821 ft | 488 kts | 311° |
| 2026-04-22 16:10 | 12.07543 | -7.40313 | 35823 ft | 489 kts | 311° |
| 2026-04-22 16:10 | 12.12145 | -7.45441 | 35826 ft | 489 kts | 311° |
| 2026-04-22 16:11 | 12.16743 | -7.50567 | 35826 ft | 489 kts | 311° |
| 2026-04-22 16:11 | 12.21345 | -7.55701 | 35827 ft | 489 kts | 311° |
| 2026-04-22 16:12 | 12.25943 | -7.60832 | 35832 ft | 489 kts | 311° |
| 2026-04-22 16:12 | 12.30534 | -7.65960 | 35834 ft | 489 kts | 310° |
| 2026-04-22 16:13 | 12.35127 | -7.71092 | 35843 ft | 489 kts | 310° |
| 2026-04-22 16:13 | 12.39684 | -7.76187 | 35846 ft | 489 kts | 310° |
| 2026-04-22 16:14 | 12.44274 | -7.81324 | 35851 ft | 488 kts | 310° |
| 2026-04-22 16:14 | 12.48861 | -7.86458 | 35859 ft | 488 kts | 310° |
| 2026-04-22 16:15 | 12.53768 | -7.91234 | 35851 ft | 490 kts | 327° |
| 2026-04-22 16:15 | 12.56834 | -7.92760 | 35862 ft | 493 kts | 339° |
| 2026-04-22 16:15 | 12.60168 | -7.93597 | 35857 ft | 496 kts | 353° |
| 2026-04-22 16:16 | 12.67057 | -7.94045 | 35837 ft | 498 kts | 355° |
| 2026-04-22 16:16 | 12.73995 | -7.94456 | 35832 ft | 501 kts | 354° |
| 2026-04-22 16:17 | 12.80969 | -7.94931 | 35819 ft | 502 kts | 354° |
| 2026-04-22 16:17 | 12.87899 | -7.95441 | 35818 ft | 503 kts | 354° |
| 2026-04-22 16:18 | 12.94880 | -7.95962 | 35816 ft | 502 kts | 354° |
| 2026-04-22 16:18 | 13.01843 | -7.96480 | 35817 ft | 501 kts | 354° |
| 2026-04-22 16:19 | 13.08787 | -7.96993 | 35800 ft | 500 kts | 354° |
| 2026-04-22 16:19 | 13.15715 | -7.97505 | 35802 ft | 498 kts | 354° |
| 2026-04-22 16:20 | 13.22615 | -7.98016 | 35805 ft | 497 kts | 354° |
| 2026-04-22 16:20 | 13.29508 | -7.98527 | 35804 ft | 496 kts | 354° |
| 2026-04-22 16:21 | 13.36353 | -7.99035 | 35808 ft | 496 kts | 354° |
| 2026-04-22 16:21 | 13.43244 | -7.99546 | 35795 ft | 497 kts | 353° |
| 2026-04-22 16:22 | 13.53624 | -8.00317 | 35782 ft | 500 kts | 353° |
| 2026-04-22 16:23 | 13.64058 | -8.01092 | 35785 ft | 501 kts | 353° |
| 2026-04-22 16:23 | 13.71016 | -8.01609 | 35772 ft | 502 kts | 353° |
| 2026-04-22 16:24 | 13.81422 | -8.02383 | 35761 ft | 501 kts | 353° |
| 2026-04-22 16:25 | 13.88378 | -8.02901 | 35763 ft | 500 kts | 353° |
| 2026-04-22 16:25 | 13.98777 | -8.03675 | 35758 ft | 499 kts | 353° |
| 2026-04-22 16:26 | 14.05701 | -8.04192 | 35758 ft | 498 kts | 353° |
| 2026-04-22 16:26 | 14.12614 | -8.04708 | 35749 ft | 498 kts | 353° |
| 2026-04-22 16:27 | 14.19533 | -8.05225 | 35750 ft | 498 kts | 353° |
| 2026-04-22 16:27 | 14.26450 | -8.05741 | 35740 ft | 499 kts | 353° |
| 2026-04-22 16:28 | 14.33374 | -8.06259 | 35736 ft | 499 kts | 353° |
| 2026-04-22 16:28 | 14.40312 | -8.06778 | 35728 ft | 499 kts | 353° |
| 2026-04-22 16:29 | 14.47200 | -8.07293 | 35727 ft | 500 kts | 353° |
| 2026-04-22 16:29 | 14.54151 | -8.07814 | 35724 ft | 500 kts | 353° |
| 2026-04-22 16:30 | 14.61097 | -8.08335 | 35727 ft | 500 kts | 353° |
| 2026-04-22 16:30 | 14.68037 | -8.08855 | 35726 ft | 500 kts | 353° |
| 2026-04-22 16:31 | 14.74977 | -8.09375 | 35724 ft | 500 kts | 353° |
| 2026-04-22 16:31 | 14.81917 | -8.09896 | 35708 ft | 500 kts | 352° |
| 2026-04-22 16:32 | 14.88865 | -8.10419 | 35724 ft | 500 kts | 352° |
| 2026-04-22 16:32 | 14.95809 | -8.10941 | 35716 ft | 501 kts | 352° |
| 2026-04-22 16:33 | 15.02719 | -8.11461 | 35717 ft | 501 kts | 352° |
| 2026-04-22 16:33 | 15.09672 | -8.11985 | 35713 ft | 501 kts | 352° |
| 2026-04-22 16:34 | 15.16633 | -8.12509 | 35723 ft | 501 kts | 352° |
| 2026-04-22 16:34 | 15.23596 | -8.13034 | 35719 ft | 501 kts | 352° |
| 2026-04-22 16:35 | 15.30558 | -8.13559 | 35719 ft | 501 kts | 352° |
| 2026-04-22 16:35 | 15.37510 | -8.14084 | 35717 ft | 501 kts | 352° |
| 2026-04-22 16:36 | 15.44473 | -8.14610 | 35718 ft | 501 kts | 352° |
| 2026-04-22 16:36 | 15.51374 | -8.15132 | 35720 ft | 501 kts | 352° |
| 2026-04-22 16:37 | 15.58369 | -8.15661 | 35712 ft | 501 kts | 352° |
| 2026-04-22 16:37 | 15.65280 | -8.16184 | 35705 ft | 501 kts | 352° |
| 2026-04-22 16:38 | 15.72236 | -8.16712 | 35712 ft | 501 kts | 352° |
| 2026-04-22 16:38 | 15.79195 | -8.17237 | 35709 ft | 501 kts | 352° |
| 2026-04-22 16:39 | 15.86149 | -8.17761 | 35719 ft | 501 kts | 352° |
| 2026-04-22 16:39 | 15.93102 | -8.18286 | 35715 ft | 501 kts | 352° |
| 2026-04-22 16:40 | 16.00058 | -8.18811 | 35702 ft | 501 kts | 352° |
| 2026-04-22 16:41 | 16.10438 | -8.19597 | 35703 ft | 500 kts | 352° |
| 2026-04-22 16:41 | 16.17426 | -8.20126 | 35718 ft | 500 kts | 352° |
| 2026-04-22 16:42 | 16.24366 | -8.20651 | 35708 ft | 500 kts | 351° |
| 2026-04-22 16:42 | 16.31253 | -8.21174 | 35707 ft | 499 kts | 351° |
| 2026-04-22 16:43 | 16.38188 | -8.21701 | 35713 ft | 499 kts | 351° |
| 2026-04-22 16:43 | 16.45118 | -8.22227 | 35714 ft | 499 kts | 351° |
| 2026-04-22 16:44 | 16.52043 | -8.22754 | 35720 ft | 499 kts | 351° |
| 2026-04-22 16:44 | 16.58964 | -8.23281 | 35722 ft | 499 kts | 351° |
| 2026-04-22 16:45 | 16.64737 | -8.23721 | 35723 ft | 499 kts | 351° |
| 2026-04-22 16:45 | 16.72801 | -8.24336 | 35724 ft | 499 kts | 351° |
| 2026-04-22 16:46 | 16.78620 | -8.24780 | 35726 ft | 500 kts | 351° |
| 2026-04-22 16:46 | 16.85511 | -8.25306 | 35725 ft | 500 kts | 350° |
| 2026-04-22 16:47 | 16.92451 | -8.25836 | 35737 ft | 500 kts | 350° |
| 2026-04-22 16:47 | 16.99399 | -8.26367 | 35729 ft | 500 kts | 350° |
| 2026-04-22 16:48 | 17.06337 | -8.26898 | 35736 ft | 500 kts | 350° |
| 2026-04-22 16:48 | 17.13286 | -8.27430 | 35736 ft | 500 kts | 350° |
| 2026-04-22 16:49 | 17.20225 | -8.27961 | 35741 ft | 499 kts | 350° |
| 2026-04-22 16:49 | 17.27153 | -8.28492 | 35750 ft | 499 kts | 350° |
| 2026-04-22 16:50 | 17.34036 | -8.29020 | 35748 ft | 499 kts | 350° |
| 2026-04-22 16:50 | 17.40964 | -8.29552 | 35745 ft | 498 kts | 350° |
| 2026-04-22 16:51 | 17.47877 | -8.30084 | 35750 ft | 497 kts | 350° |
| 2026-04-22 16:51 | 17.54792 | -8.30616 | 35746 ft | 497 kts | 350° |
| 2026-04-22 16:52 | 17.61692 | -8.31147 | 35762 ft | 497 kts | 349° |
| 2026-04-22 16:52 | 17.68584 | -8.31679 | 35755 ft | 496 kts | 349° |
| 2026-04-22 16:53 | 17.75438 | -8.32206 | 35762 ft | 496 kts | 349° |
| 2026-04-22 16:53 | 17.82320 | -8.32737 | 35763 ft | 496 kts | 349° |
| 2026-04-22 16:54 | 17.89201 | -8.33269 | 35758 ft | 496 kts | 349° |
| 2026-04-22 16:54 | 17.96096 | -8.33802 | 35761 ft | 496 kts | 349° |
| 2026-04-22 16:55 | 18.02976 | -8.34334 | 35767 ft | 496 kts | 349° |
| 2026-04-22 16:55 | 18.09865 | -8.34867 | 35768 ft | 496 kts | 349° |
| 2026-04-22 16:56 | 18.16764 | -8.35402 | 35764 ft | 496 kts | 349° |
| 2026-04-22 16:56 | 18.23609 | -8.35932 | 35769 ft | 497 kts | 349° |
| 2026-04-22 16:57 | 18.30513 | -8.36467 | 35777 ft | 496 kts | 349° |
| 2026-04-22 16:57 | 18.37399 | -8.37002 | 35770 ft | 496 kts | 349° |
| 2026-04-22 16:58 | 18.43119 | -8.37446 | 35779 ft | 495 kts | 349° |
| 2026-04-22 16:58 | 18.51151 | -8.38070 | 35780 ft | 495 kts | 349° |
| 2026-04-22 16:59 | 18.58022 | -8.38605 | 35782 ft | 495 kts | 349° |
| 2026-04-22 16:59 | 18.64887 | -8.39140 | 35791 ft | 495 kts | 349° |
| 2026-04-22 17:00 | 18.71707 | -8.39672 | 35791 ft | 494 kts | 349° |
| 2026-04-22 17:00 | 18.81994 | -8.40474 | 35796 ft | 493 kts | 349° |
| 2026-04-22 17:01 | 18.88845 | -8.41010 | 35792 ft | 493 kts | 349° |
| 2026-04-22 17:01 | 18.95688 | -8.41545 | 35807 ft | 493 kts | 348° |
| 2026-04-22 17:02 | 19.02535 | -8.42080 | 35787 ft | 493 kts | 348° |
| 2026-04-22 17:02 | 19.09389 | -8.42617 | 35801 ft | 494 kts | 349° |
| 2026-04-22 17:03 | 19.16247 | -8.43155 | 35798 ft | 494 kts | 348° |
| 2026-04-22 17:03 | 19.23112 | -8.43693 | 35796 ft | 494 kts | 349° |
| 2026-04-22 17:04 | 19.29962 | -8.44231 | 35811 ft | 494 kts | 348° |
| 2026-04-22 17:04 | 19.36781 | -8.44767 | 35798 ft | 494 kts | 348° |
| 2026-04-22 17:05 | 19.43641 | -8.45306 | 35801 ft | 494 kts | 348° |
| 2026-04-22 17:05 | 19.50497 | -8.45847 | 35803 ft | 493 kts | 348° |
| 2026-04-22 17:06 | 19.57341 | -8.46392 | 35802 ft | 493 kts | 348° |
| 2026-04-22 17:06 | 19.64181 | -8.46937 | 35809 ft | 493 kts | 348° |
| 2026-04-22 17:07 | 19.71009 | -8.47482 | 35799 ft | 491 kts | 348° |
| 2026-04-22 17:07 | 19.77811 | -8.48024 | 35800 ft | 489 kts | 348° |
| 2026-04-22 17:08 | 19.84586 | -8.48566 | 35803 ft | 488 kts | 348° |
| 2026-04-22 17:08 | 19.91350 | -8.49107 | 35802 ft | 487 kts | 348° |
| 2026-04-22 17:09 | 19.98069 | -8.49645 | 35818 ft | 487 kts | 348° |
| 2026-04-22 17:09 | 20.04821 | -8.50183 | 35807 ft | 486 kts | 348° |
| 2026-04-22 17:10 | 20.11556 | -8.50715 | 35805 ft | 485 kts | 348° |
| 2026-04-22 17:10 | 20.18286 | -8.51248 | 35811 ft | 484 kts | 348° |
| 2026-04-22 17:11 | 20.25012 | -8.51783 | 35811 ft | 484 kts | 348° |
| 2026-04-22 17:11 | 20.31733 | -8.52317 | 35815 ft | 484 kts | 348° |
| 2026-04-22 17:12 | 20.38449 | -8.52851 | 35811 ft | 484 kts | 348° |
| 2026-04-22 17:12 | 20.45165 | -8.53386 | 35812 ft | 483 kts | 348° |
| 2026-04-22 17:13 | 20.51867 | -8.53919 | 35815 ft | 483 kts | 347° |
| 2026-04-22 17:13 | 20.58527 | -8.54451 | 35812 ft | 483 kts | 347° |
| 2026-04-22 17:14 | 20.65228 | -8.54985 | 35822 ft | 482 kts | 347° |
| 2026-04-22 17:14 | 20.71910 | -8.55519 | 35811 ft | 481 kts | 347° |
| 2026-04-22 17:15 | 20.78582 | -8.56053 | 35812 ft | 480 kts | 347° |
| 2026-04-22 17:15 | 20.85244 | -8.56586 | 35818 ft | 479 kts | 347° |
| 2026-04-22 17:16 | 20.91905 | -8.57120 | 35815 ft | 479 kts | 347° |
| 2026-04-22 17:16 | 20.98503 | -8.57649 | 35825 ft | 478 kts | 347° |
| 2026-04-22 17:17 | 21.05134 | -8.58181 | 35814 ft | 478 kts | 347° |
| 2026-04-22 17:17 | 21.11761 | -8.58714 | 35816 ft | 477 kts | 347° |
| 2026-04-22 17:18 | 21.18378 | -8.59246 | 35819 ft | 476 kts | 347° |
| 2026-04-22 17:18 | 21.24991 | -8.59778 | 35819 ft | 476 kts | 347° |
| 2026-04-22 17:19 | 21.38215 | -8.60845 | 35819 ft | 477 kts | 347° |
| 2026-04-22 17:20 | 21.51483 | -8.61916 | 35822 ft | 478 kts | 347° |
| 2026-04-22 17:21 | 21.61385 | -8.62716 | 35821 ft | 477 kts | 347° |
| 2026-04-22 17:22 | 21.71298 | -8.63517 | 35813 ft | 475 kts | 347° |
| 2026-04-22 17:23 | 21.81163 | -8.64317 | 35816 ft | 473 kts | 347° |
| 2026-04-22 17:23 | 21.91007 | -8.65117 | 35836 ft | 472 kts | 346° |
| 2026-04-22 17:24 | 21.97556 | -8.65650 | 35817 ft | 472 kts | 346° |
| 2026-04-22 17:24 | 22.04100 | -8.66182 | 35812 ft | 471 kts | 346° |
| 2026-04-22 17:25 | 22.10627 | -8.66714 | 35816 ft | 470 kts | 346° |
| 2026-04-22 17:25 | 22.17103 | -8.67243 | 35817 ft | 470 kts | 346° |
| 2026-04-22 17:26 | 22.23625 | -8.67777 | 35841 ft | 469 kts | 346° |
| 2026-04-22 17:26 | 22.30145 | -8.68312 | 35815 ft | 469 kts | 346° |
| 2026-04-22 17:27 | 22.36651 | -8.68846 | 35811 ft | 469 kts | 346° |
| 2026-04-22 17:27 | 22.43157 | -8.69380 | 35814 ft | 468 kts | 346° |
| 2026-04-22 17:28 | 22.49653 | -8.69915 | 35812 ft | 468 kts | 346° |
| 2026-04-22 17:28 | 22.56153 | -8.70450 | 35830 ft | 468 kts | 346° |
| 2026-04-22 17:29 | 22.62660 | -8.70986 | 35816 ft | 468 kts | 346° |
| 2026-04-22 17:29 | 22.69157 | -8.71522 | 35812 ft | 468 kts | 346° |
| 2026-04-22 17:30 | 22.75611 | -8.72054 | 35812 ft | 468 kts | 346° |
| 2026-04-22 17:30 | 22.82107 | -8.72591 | 35815 ft | 468 kts | 346° |
| 2026-04-22 17:31 | 22.88603 | -8.73129 | 35842 ft | 469 kts | 345° |
| 2026-04-22 17:31 | 22.95120 | -8.73669 | 35821 ft | 469 kts | 345° |
| 2026-04-22 17:32 | 23.01642 | -8.74209 | 35813 ft | 469 kts | 346° |
| 2026-04-22 17:32 | 23.08144 | -8.74748 | 35813 ft | 469 kts | 345° |
| 2026-04-22 17:33 | 23.14653 | -8.75288 | 35813 ft | 469 kts | 345° |
| 2026-04-22 17:33 | 23.21162 | -8.75830 | 35827 ft | 469 kts | 345° |
| 2026-04-22 17:34 | 23.27624 | -8.76367 | 35816 ft | 469 kts | 345° |
| 2026-04-22 17:34 | 23.34129 | -8.76908 | 35818 ft | 468 kts | 345° |
| 2026-04-22 17:35 | 23.39530 | -8.77358 | 35809 ft | 468 kts | 345° |
| 2026-04-22 17:35 | 23.47117 | -8.77991 | 35806 ft | 468 kts | 345° |
| 2026-04-22 17:36 | 23.52512 | -8.78442 | 35830 ft | 468 kts | 345° |
| 2026-04-22 17:36 | 23.59003 | -8.78985 | 35807 ft | 468 kts | 345° |
| 2026-04-22 17:37 | 23.65494 | -8.79528 | 35817 ft | 468 kts | 345° |
| 2026-04-22 17:37 | 23.71989 | -8.80072 | 35804 ft | 468 kts | 345° |
| 2026-04-22 17:38 | 23.78482 | -8.80616 | 35807 ft | 468 kts | 345° |
| 2026-04-22 17:38 | 23.84969 | -8.81161 | 35815 ft | 468 kts | 345° |
| 2026-04-22 17:39 | 23.91470 | -8.81707 | 35816 ft | 468 kts | 345° |
| 2026-04-22 17:40 | 24.01173 | -8.82523 | 35816 ft | 468 kts | 345° |
| 2026-04-22 17:40 | 24.07666 | -8.83069 | 35814 ft | 468 kts | 345° |
| 2026-04-22 17:41 | 24.14157 | -8.83616 | 35835 ft | 468 kts | 344° |
| 2026-04-22 17:41 | 24.20663 | -8.84166 | 35809 ft | 468 kts | 344° |
| 2026-04-22 17:42 | 24.27158 | -8.84714 | 35809 ft | 467 kts | 344° |
| 2026-04-22 17:42 | 24.33603 | -8.85258 | 35809 ft | 467 kts | 344° |
| 2026-04-22 17:43 | 24.40081 | -8.85805 | 35815 ft | 467 kts | 344° |
| 2026-04-22 17:43 | 24.46556 | -8.86354 | 35821 ft | 467 kts | 344° |
| 2026-04-22 17:44 | 24.53037 | -8.86903 | 35818 ft | 467 kts | 344° |
| 2026-04-22 17:44 | 24.59518 | -8.87453 | 35824 ft | 467 kts | 344° |
| 2026-04-22 17:45 | 24.66000 | -8.88003 | 35824 ft | 467 kts | 344° |
| 2026-04-22 17:45 | 24.72478 | -8.88553 | 35823 ft | 467 kts | 344° |
| 2026-04-22 17:46 | 24.78959 | -8.89105 | 35832 ft | 467 kts | 344° |
| 2026-04-22 17:46 | 24.85404 | -8.89653 | 35826 ft | 467 kts | 344° |
| 2026-04-22 17:47 | 24.91884 | -8.90206 | 35827 ft | 467 kts | 344° |
| 2026-04-22 17:47 | 24.98365 | -8.90758 | 35827 ft | 467 kts | 343° |
| 2026-04-22 17:48 | 25.04836 | -8.91311 | 35828 ft | 466 kts | 343° |
| 2026-04-22 17:48 | 25.11314 | -8.91865 | 35836 ft | 467 kts | 343° |
| 2026-04-22 17:49 | 25.17786 | -8.92420 | 35835 ft | 466 kts | 343° |
| 2026-04-22 17:49 | 25.24252 | -8.92973 | 35828 ft | 466 kts | 343° |
| 2026-04-22 17:50 | 25.30713 | -8.93527 | 35834 ft | 466 kts | 343° |
| 2026-04-22 17:50 | 25.37174 | -8.94082 | 35869 ft | 465 kts | 343° |
| 2026-04-22 17:51 | 25.43633 | -8.94638 | 35843 ft | 466 kts | 343° |
| 2026-04-22 17:51 | 25.50088 | -8.95193 | 35840 ft | 465 kts | 343° |
| 2026-04-22 17:52 | 25.56539 | -8.95749 | 35841 ft | 465 kts | 343° |
| 2026-04-22 17:52 | 25.62942 | -8.96301 | 35844 ft | 465 kts | 343° |
| 2026-04-22 17:53 | 25.69391 | -8.96858 | 35866 ft | 465 kts | 343° |
| 2026-04-22 17:53 | 25.75838 | -8.97416 | 35855 ft | 464 kts | 343° |
| 2026-04-22 17:54 | 25.82287 | -8.97974 | 35839 ft | 464 kts | 343° |
| 2026-04-22 17:54 | 25.88731 | -8.98532 | 35844 ft | 464 kts | 343° |
| 2026-04-22 17:55 | 25.95165 | -8.99090 | 35852 ft | 464 kts | 343° |
| 2026-04-22 17:55 | 26.01601 | -8.99649 | 35860 ft | 465 kts | 342° |
| 2026-04-22 17:56 | 26.08046 | -9.00210 | 35847 ft | 465 kts | 342° |
| 2026-04-22 17:56 | 26.14493 | -9.00770 | 35851 ft | 464 kts | 342° |
| 2026-04-22 17:57 | 26.20929 | -9.01330 | 35848 ft | 464 kts | 342° |
| 2026-04-22 17:57 | 26.27360 | -9.01891 | 35851 ft | 464 kts | 342° |
| 2026-04-22 17:58 | 26.33794 | -9.02454 | 35859 ft | 464 kts | 342° |
| 2026-04-22 17:58 | 26.40201 | -9.03014 | 35854 ft | 464 kts | 342° |
| 2026-04-22 17:59 | 26.46640 | -9.03577 | 35853 ft | 464 kts | 342° |
| 2026-04-22 17:59 | 26.53075 | -9.04140 | 35850 ft | 464 kts | 342° |
| 2026-04-22 18:00 | 26.58429 | -9.04610 | 35876 ft | 464 kts | 342° |
| 2026-04-22 18:00 | 26.65968 | -9.05272 | 35863 ft | 465 kts | 342° |
| 2026-04-22 18:01 | 26.72412 | -9.05838 | 35857 ft | 465 kts | 342° |
| 2026-04-22 18:01 | 26.78818 | -9.06401 | 35851 ft | 464 kts | 342° |
| 2026-04-22 18:02 | 26.85266 | -9.06969 | 35857 ft | 464 kts | 342° |
| 2026-04-22 18:02 | 26.91716 | -9.07538 | 35863 ft | 465 kts | 342° |
| 2026-04-22 18:03 | 26.98168 | -9.08109 | 35862 ft | 465 kts | 342° |
| 2026-04-22 18:03 | 27.04624 | -9.08680 | 35858 ft | 466 kts | 342° |
| 2026-04-22 18:04 | 27.11091 | -9.09252 | 35855 ft | 466 kts | 342° |
| 2026-04-22 18:04 | 27.17526 | -9.09822 | 35861 ft | 466 kts | 342° |
| 2026-04-22 18:05 | 27.24014 | -9.10399 | 35866 ft | 468 kts | 342° |
| 2026-04-22 18:05 | 27.30519 | -9.10976 | 35862 ft | 469 kts | 342° |
| 2026-04-22 18:06 | 27.37035 | -9.11555 | 35861 ft | 470 kts | 342° |
| 2026-04-22 18:06 | 27.43549 | -9.12134 | 35852 ft | 470 kts | 342° |
| 2026-04-22 18:07 | 27.48969 | -9.12617 | 35857 ft | 470 kts | 342° |
| 2026-04-22 18:07 | 27.56594 | -9.13297 | 35855 ft | 470 kts | 342° |
| 2026-04-22 18:08 | 27.63071 | -9.13875 | 35850 ft | 469 kts | 342° |
| 2026-04-22 18:08 | 27.69586 | -9.14456 | 35851 ft | 469 kts | 342° |
| 2026-04-22 18:09 | 27.76099 | -9.15031 | 35872 ft | 469 kts | 342° |
| 2026-04-22 18:09 | 27.82612 | -9.15606 | 35857 ft | 470 kts | 342° |
| 2026-04-22 18:10 | 27.89141 | -9.16184 | 35849 ft | 471 kts | 342° |
| 2026-04-22 18:10 | 27.95678 | -9.16762 | 35851 ft | 471 kts | 342° |
| 2026-04-22 18:11 | 28.02216 | -9.17342 | 35842 ft | 471 kts | 342° |
| 2026-04-22 18:11 | 28.08752 | -9.17922 | 35859 ft | 472 kts | 343° |
| 2026-04-22 18:12 | 28.15252 | -9.18500 | 35838 ft | 472 kts | 343° |
| 2026-04-22 18:12 | 28.20737 | -9.18988 | 35844 ft | 471 kts | 343° |
| 2026-04-22 18:13 | 28.28326 | -9.19664 | 35847 ft | 471 kts | 343° |
| 2026-04-22 18:13 | 28.34874 | -9.20249 | 35838 ft | 472 kts | 343° |
| 2026-04-22 18:14 | 28.41435 | -9.20837 | 35850 ft | 473 kts | 343° |
| 2026-04-22 18:14 | 28.48002 | -9.21424 | 35826 ft | 474 kts | 343° |
| 2026-04-22 18:15 | 28.54583 | -9.22012 | 35837 ft | 473 kts | 343° |
| 2026-04-22 18:15 | 28.61153 | -9.22601 | 35839 ft | 473 kts | 343° |
| 2026-04-22 18:16 | 28.67679 | -9.23188 | 35842 ft | 474 kts | 343° |
| 2026-04-22 18:16 | 28.74265 | -9.23780 | 35845 ft | 474 kts | 344° |
| 2026-04-22 18:17 | 28.80844 | -9.24371 | 35850 ft | 472 kts | 344° |
| 2026-04-22 18:17 | 28.87404 | -9.24963 | 35863 ft | 473 kts | 344° |
| 2026-04-22 18:18 | 28.93924 | -9.25551 | 35901 ft | 473 kts | 344° |
| 2026-04-22 18:18 | 29.00518 | -9.26149 | 35886 ft | 476 kts | 344° |
| 2026-04-22 18:19 | 29.07146 | -9.26755 | 35891 ft | 479 kts | 344° |
| 2026-04-22 18:19 | 29.13807 | -9.27363 | 35884 ft | 480 kts | 344° |
| 2026-04-22 18:20 | 29.20468 | -9.27969 | 35891 ft | 479 kts | 344° |
| 2026-04-22 18:20 | 29.27114 | -9.28575 | 35900 ft | 479 kts | 344° |
| 2026-04-22 18:21 | 29.33754 | -9.29183 | 35907 ft | 479 kts | 345° |
| 2026-04-22 18:21 | 29.40364 | -9.29790 | 35918 ft | 478 kts | 345° |
| 2026-04-22 18:22 | 29.46999 | -9.30399 | 35919 ft | 477 kts | 344° |
| 2026-04-22 18:22 | 29.53617 | -9.31009 | 35945 ft | 478 kts | 345° |
| 2026-04-22 18:23 | 29.60247 | -9.31621 | 35942 ft | 478 kts | 345° |
| 2026-04-22 18:23 | 29.66882 | -9.32235 | 35942 ft | 479 kts | 345° |
| 2026-04-22 18:24 | 29.76875 | -9.33157 | 35958 ft | 480 kts | 345° |
| 2026-04-22 18:25 | 29.86854 | -9.34080 | 35950 ft | 481 kts | 345° |
| 2026-04-22 18:25 | 29.93529 | -9.34699 | 35946 ft | 482 kts | 345° |
| 2026-04-22 18:26 | 30.02473 | -9.35530 | 35946 ft | 482 kts | 345° |
| 2026-04-22 18:26 | 30.09118 | -9.36148 | 35952 ft | 482 kts | 346° |
| 2026-04-22 18:27 | 30.15809 | -9.36771 | 35944 ft | 483 kts | 346° |
| 2026-04-22 18:27 | 30.22521 | -9.37396 | 35947 ft | 483 kts | 346° |
| 2026-04-22 18:28 | 30.29248 | -9.38025 | 36332 ft | 485 kts | 345° |
| 2026-04-22 18:28 | 30.32576 | -9.38433 | 36738 ft | 476 kts | 341° |
| 2026-04-22 18:28 | 30.35778 | -9.39180 | 37159 ft | 465 kts | 335° |
| 2026-04-22 18:29 | 30.38904 | -9.40068 | 37560 ft | 461 kts | 334° |
| 2026-04-22 18:29 | 30.42001 | -9.40972 | 37934 ft | 458 kts | 334° |
| 2026-04-22 18:29 | 30.48229 | -9.42781 | 37944 ft | 461 kts | 334° |
| 2026-04-22 18:30 | 30.57545 | -9.45405 | 37938 ft | 458 kts | 334° |
| 2026-04-22 18:31 | 30.63697 | -9.47135 | 37960 ft | 458 kts | 334° |
| 2026-04-22 18:31 | 30.69912 | -9.48887 | 37955 ft | 460 kts | 334° |
| 2026-04-22 18:32 | 30.76161 | -9.50652 | 37943 ft | 463 kts | 334° |
| 2026-04-22 18:32 | 30.82423 | -9.52425 | 37945 ft | 464 kts | 334° |
| 2026-04-22 18:33 | 30.88709 | -9.54211 | 37949 ft | 465 kts | 334° |
| 2026-04-22 18:33 | 30.95021 | -9.56005 | 37948 ft | 467 kts | 335° |
| 2026-04-22 18:34 | 31.01294 | -9.57787 | 37944 ft | 467 kts | 335° |
| 2026-04-22 18:34 | 31.07616 | -9.59583 | 37957 ft | 468 kts | 335° |
| 2026-04-22 18:35 | 31.13952 | -9.61357 | 37959 ft | 467 kts | 335° |
| 2026-04-22 18:35 | 31.20286 | -9.63126 | 37968 ft | 468 kts | 336° |
| 2026-04-22 18:36 | 31.26625 | -9.64905 | 37971 ft | 468 kts | 335° |
| 2026-04-22 18:36 | 31.32962 | -9.66689 | 37973 ft | 469 kts | 335° |
| 2026-04-22 18:37 | 31.39407 | -9.68218 | 37965 ft | 480 kts | 343° |
| 2026-04-22 18:37 | 31.46188 | -9.68448 | 37976 ft | 495 kts | 353° |
| 2026-04-22 18:38 | 31.53092 | -9.67962 | 37978 ft | 497 kts | 354° |
| 2026-04-22 18:38 | 31.59994 | -9.67429 | 37975 ft | 496 kts | 354° |
| 2026-04-22 18:39 | 31.70290 | -9.66712 | 37964 ft | 496 kts | 353° |
| 2026-04-22 18:39 | 31.77182 | -9.66261 | 37970 ft | 496 kts | 354° |
| 2026-04-22 18:40 | 31.84069 | -9.65809 | 37968 ft | 495 kts | 354° |
| 2026-04-22 18:40 | 31.90941 | -9.65355 | 37970 ft | 494 kts | 354° |
| 2026-04-22 18:41 | 31.97814 | -9.64900 | 37970 ft | 494 kts | 354° |
| 2026-04-22 18:41 | 32.04691 | -9.64445 | 37972 ft | 495 kts | 355° |
| 2026-04-22 18:42 | 32.11529 | -9.63990 | 37967 ft | 495 kts | 355° |
| 2026-04-22 18:42 | 32.18409 | -9.63532 | 37967 ft | 495 kts | 355° |
| 2026-04-22 18:43 | 32.25297 | -9.63073 | 38001 ft | 496 kts | 355° |
| 2026-04-22 18:43 | 32.32203 | -9.62613 | 37977 ft | 497 kts | 355° |
| 2026-04-22 18:44 | 32.39126 | -9.62149 | 37969 ft | 498 kts | 355° |
| 2026-04-22 18:44 | 32.46000 | -9.61689 | 37970 ft | 498 kts | 355° |
| 2026-04-22 18:45 | 32.52915 | -9.61225 | 37997 ft | 498 kts | 356° |
| 2026-04-22 18:45 | 32.59852 | -9.60759 | 37968 ft | 498 kts | 356° |
| 2026-04-22 18:46 | 32.66773 | -9.60293 | 37967 ft | 498 kts | 356° |
| 2026-04-22 18:46 | 32.73698 | -9.59826 | 37967 ft | 498 kts | 356° |
| 2026-04-22 18:47 | 32.80616 | -9.59359 | 37986 ft | 498 kts | 356° |
| 2026-04-22 18:47 | 32.87553 | -9.58891 | 37972 ft | 498 kts | 356° |
| 2026-04-22 18:48 | 32.94476 | -9.58422 | 37971 ft | 498 kts | 356° |
| 2026-04-22 18:48 | 33.01345 | -9.57956 | 37975 ft | 498 kts | 356° |
| 2026-04-22 18:49 | 33.08271 | -9.57486 | 37975 ft | 498 kts | 356° |
| 2026-04-22 18:49 | 33.15201 | -9.57015 | 37978 ft | 499 kts | 356° |
| 2026-04-22 18:50 | 33.22139 | -9.56543 | 37976 ft | 499 kts | 356° |
| 2026-04-22 18:50 | 33.29083 | -9.56069 | 37973 ft | 500 kts | 356° |
| 2026-04-22 18:51 | 33.36032 | -9.55594 | 37986 ft | 501 kts | 357° |
| 2026-04-22 18:51 | 33.42994 | -9.55118 | 37979 ft | 501 kts | 357° |
| 2026-04-22 18:52 | 33.49949 | -9.54640 | 37978 ft | 501 kts | 357° |
| 2026-04-22 18:52 | 33.56914 | -9.54162 | 37977 ft | 501 kts | 357° |
| 2026-04-22 18:53 | 33.63831 | -9.53686 | 37984 ft | 501 kts | 357° |
| 2026-04-22 18:53 | 33.70792 | -9.53206 | 37981 ft | 501 kts | 357° |
| 2026-04-22 18:54 | 33.77756 | -9.52726 | 37978 ft | 501 kts | 357° |
| 2026-04-22 18:54 | 33.84724 | -9.52244 | 38003 ft | 501 kts | 357° |
| 2026-04-22 18:55 | 33.91687 | -9.51763 | 37992 ft | 502 kts | 358° |
| 2026-04-22 18:55 | 33.98661 | -9.51279 | 37985 ft | 502 kts | 358° |
| 2026-04-22 18:56 | 34.05640 | -9.50794 | 37984 ft | 502 kts | 358° |
| 2026-04-22 18:56 | 34.12609 | -9.50309 | 37999 ft | 502 kts | 358° |
| 2026-04-22 18:57 | 34.19584 | -9.49823 | 37979 ft | 502 kts | 358° |
| 2026-04-22 18:57 | 34.26565 | -9.49336 | 37982 ft | 502 kts | 358° |
| 2026-04-22 18:58 | 34.33547 | -9.48848 | 37980 ft | 503 kts | 358° |
| 2026-04-22 18:58 | 34.40539 | -9.48358 | 37992 ft | 503 kts | 358° |
| 2026-04-22 18:59 | 34.47545 | -9.47867 | 37984 ft | 504 kts | 358° |
| 2026-04-22 18:59 | 34.54494 | -9.47378 | 37982 ft | 504 kts | 358° |
| 2026-04-22 19:00 | 34.61494 | -9.46885 | 37985 ft | 504 kts | 358° |
| 2026-04-22 19:00 | 34.68492 | -9.46392 | 37990 ft | 504 kts | 358° |
| 2026-04-22 19:01 | 34.75499 | -9.45897 | 37978 ft | 504 kts | 358° |
| 2026-04-22 19:01 | 34.82502 | -9.45401 | 37984 ft | 503 kts | 358° |
| 2026-04-22 19:02 | 34.89484 | -9.44906 | 38001 ft | 502 kts | 358° |
| 2026-04-22 19:02 | 34.96461 | -9.44411 | 37988 ft | 502 kts | 358° |
| 2026-04-22 19:03 | 35.03397 | -9.43918 | 37980 ft | 502 kts | 358° |
| 2026-04-22 19:03 | 35.10373 | -9.43421 | 37991 ft | 502 kts | 358° |
| 2026-04-22 19:04 | 35.17347 | -9.42924 | 37990 ft | 502 kts | 359° |
| 2026-04-22 19:04 | 35.24319 | -9.42426 | 37986 ft | 502 kts | 359° |
| 2026-04-22 19:05 | 35.31298 | -9.41926 | 37987 ft | 502 kts | 359° |
| 2026-04-22 19:05 | 35.38240 | -9.41428 | 37995 ft | 502 kts | 359° |
| 2026-04-22 19:06 | 35.45235 | -9.40926 | 37994 ft | 503 kts | 359° |
| 2026-04-22 19:07 | 35.55724 | -9.40170 | 37988 ft | 504 kts | 359° |
| 2026-04-22 19:07 | 35.62721 | -9.39665 | 37990 ft | 504 kts | 359° |
| 2026-04-22 19:08 | 35.69728 | -9.39159 | 37986 ft | 504 kts | 359° |
| 2026-04-22 19:08 | 35.76696 | -9.38654 | 37990 ft | 504 kts | 359° |
| 2026-04-22 19:09 | 35.83705 | -9.38146 | 37992 ft | 504 kts | 359° |
| 2026-04-22 19:09 | 35.89571 | -9.37719 | 38007 ft | 504 kts | 359° |
| 2026-04-22 19:10 | 35.97722 | -9.36884 | 37992 ft | 508 kts | 6° |
| 2026-04-22 19:10 | 36.04649 | -9.34927 | 37997 ft | 512 kts | 11° |
| 2026-04-22 19:11 | 36.11545 | -9.32724 | 37988 ft | 512 kts | 11° |
| 2026-04-22 19:11 | 36.18449 | -9.30548 | 37997 ft | 512 kts | 11° |
| 2026-04-22 19:12 | 36.25365 | -9.28408 | 37985 ft | 512 kts | 11° |
| 2026-04-22 19:12 | 36.32281 | -9.26279 | 37990 ft | 512 kts | 10° |
| 2026-04-22 19:13 | 36.39203 | -9.24151 | 38006 ft | 512 kts | 10° |
| 2026-04-22 19:13 | 36.46128 | -9.22013 | 37990 ft | 512 kts | 10° |
| 2026-04-22 19:14 | 36.53002 | -9.19884 | 37989 ft | 513 kts | 11° |
| 2026-04-22 19:14 | 36.58802 | -9.18084 | 37989 ft | 513 kts | 11° |
| 2026-04-22 19:15 | 36.64554 | -9.16298 | 38003 ft | 513 kts | 11° |
| 2026-04-22 19:15 | 36.72617 | -9.13788 | 37987 ft | 513 kts | 11° |
| 2026-04-22 19:16 | 36.79545 | -9.11628 | 37990 ft | 514 kts | 11° |
| 2026-04-22 19:16 | 36.86484 | -9.09460 | 37989 ft | 514 kts | 11° |
| 2026-04-22 19:17 | 36.93414 | -9.07291 | 37988 ft | 513 kts | 11° |
| 2026-04-22 19:17 | 37.00336 | -9.05120 | 37986 ft | 513 kts | 11° |
| 2026-04-22 19:18 | 37.07251 | -9.02947 | 37985 ft | 512 kts | 11° |
| 2026-04-22 19:18 | 37.14165 | -9.00771 | 37981 ft | 512 kts | 11° |
| 2026-04-22 19:18 | 37.17656 | -8.99673 | 37253 ft | 521 kts | 11° |
| 2026-04-22 19:19 | 37.21175 | -8.98564 | 36577 ft | 520 kts | 11° |
| 2026-04-22 19:19 | 37.24670 | -8.97459 | 35837 ft | 518 kts | 11° |
| 2026-04-22 19:19 | 37.28176 | -8.96349 | 35023 ft | 519 kts | 11° |
| 2026-04-22 19:19 | 37.31682 | -8.95239 | 34179 ft | 520 kts | 11° |
| 2026-04-22 19:20 | 37.35158 | -8.94138 | 33210 ft | 522 kts | 11° |
| 2026-04-22 19:20 | 37.38694 | -8.93017 | 32252 ft | 524 kts | 12° |
| 2026-04-22 19:20 | 37.42229 | -8.91896 | 31284 ft | 525 kts | 12° |
| 2026-04-22 19:20 | 37.45782 | -8.90766 | 30328 ft | 527 kts | 12° |
| 2026-04-22 19:21 | 37.49308 | -8.89644 | 29635 ft | 520 kts | 12° |
| 2026-04-22 19:21 | 37.52784 | -8.88535 | 29348 ft | 506 kts | 12° |
| 2026-04-22 19:21 | 37.56147 | -8.87462 | 29147 ft | 491 kts | 11° |
| 2026-04-22 19:21 | 37.59435 | -8.86800 | 28926 ft | 470 kts | 357° |
| 2026-04-22 19:22 | 37.62613 | -8.87236 | 28507 ft | 453 kts | 340° |
| 2026-04-22 19:22 | 37.65536 | -8.88500 | 28103 ft | 440 kts | 336° |
| 2026-04-22 19:22 | 37.68420 | -8.89760 | 27666 ft | 437 kts | 336° |
| 2026-04-22 19:22 | 37.71304 | -8.90970 | 27246 ft | 437 kts | 337° |
| 2026-04-22 19:23 | 37.74202 | -8.92161 | 26831 ft | 438 kts | 338° |
| 2026-04-22 19:23 | 37.77096 | -8.93340 | 26404 ft | 438 kts | 338° |
| 2026-04-22 19:23 | 37.79991 | -8.94517 | 25989 ft | 437 kts | 338° |
| 2026-04-22 19:23 | 37.82884 | -8.95694 | 25575 ft | 435 kts | 338° |
| 2026-04-22 19:24 | 37.85763 | -8.96869 | 25175 ft | 433 kts | 338° |
| 2026-04-22 19:24 | 37.88615 | -8.98034 | 24882 ft | 429 kts | 338° |
| 2026-04-22 19:24 | 37.91454 | -8.99200 | 24366 ft | 430 kts | 338° |
| 2026-04-22 19:24 | 37.94324 | -9.00225 | 23893 ft | 426 kts | 346° |
| 2026-04-22 19:25 | 37.97261 | -9.00550 | 23206 ft | 423 kts | 358° |
| 2026-04-22 19:25 | 38.00186 | -9.00242 | 22339 ft | 421 kts | 7° |
| 2026-04-22 19:25 | 38.03035 | -8.99421 | 21461 ft | 420 kts | 13° |
| 2026-04-22 19:25 | 38.05852 | -8.98499 | 20635 ft | 416 kts | 12° |
| 2026-04-22 19:26 | 38.08608 | -8.97601 | 19876 ft | 412 kts | 12° |
| 2026-04-22 19:26 | 38.11359 | -8.96712 | 19344 ft | 402 kts | 12° |
| 2026-04-22 19:26 | 38.14028 | -8.95855 | 18925 ft | 392 kts | 12° |
| 2026-04-22 19:26 | 38.16675 | -8.95012 | 18525 ft | 392 kts | 12° |
| 2026-04-22 19:27 | 38.19332 | -8.94170 | 18078 ft | 396 kts | 12° |
| 2026-04-22 19:27 | 38.22025 | -8.93320 | 17603 ft | 400 kts | 12° |
| 2026-04-22 19:27 | 38.24726 | -8.92465 | 17157 ft | 399 kts | 12° |
| 2026-04-22 19:27 | 38.27419 | -8.91613 | 16717 ft | 397 kts | 12° |
| 2026-04-22 19:28 | 38.30086 | -8.90767 | 16278 ft | 394 kts | 12° |
| 2026-04-22 19:28 | 38.32743 | -8.89924 | 15865 ft | 392 kts | 12° |
| 2026-04-22 19:28 | 38.35380 | -8.89086 | 15439 ft | 390 kts | 13° |
| 2026-04-22 19:28 | 38.38011 | -8.88250 | 15004 ft | 388 kts | 13° |
| 2026-04-22 19:29 | 38.40624 | -8.87420 | 14595 ft | 386 kts | 13° |
| 2026-04-22 19:29 | 38.43227 | -8.86592 | 14172 ft | 385 kts | 13° |
| 2026-04-22 19:29 | 38.45826 | -8.85764 | 13741 ft | 383 kts | 13° |
| 2026-04-22 19:29 | 38.48409 | -8.84941 | 13273 ft | 382 kts | 13° |
| 2026-04-22 19:30 | 38.50111 | -8.84399 | 12988 ft | 380 kts | 13° |
| 2026-04-22 19:30 | 38.53529 | -8.83308 | 12412 ft | 377 kts | 13° |
| 2026-04-22 19:30 | 38.56033 | -8.82509 | 12007 ft | 374 kts | 13° |
| 2026-04-22 19:30 | 38.58557 | -8.81703 | 11589 ft | 372 kts | 14° |
| 2026-04-22 19:31 | 38.61059 | -8.80903 | 11176 ft | 369 kts | 14° |
| 2026-04-22 19:31 | 38.63539 | -8.80110 | 10769 ft | 363 kts | 14° |
| 2026-04-22 19:31 | 38.65932 | -8.79343 | 10512 ft | 344 kts | 14° |
| 2026-04-22 19:31 | 38.68192 | -8.78619 | 10349 ft | 325 kts | 14° |
| 2026-04-22 19:32 | 38.70322 | -8.77936 | 10198 ft | 307 kts | 14° |
| 2026-04-22 19:32 | 38.72366 | -8.77280 | 10084 ft | 298 kts | 14° |
| 2026-04-22 19:32 | 38.74354 | -8.76641 | 9953 ft | 295 kts | 14° |
| 2026-04-22 19:32 | 38.76373 | -8.75992 | 9655 ft | 301 kts | 14° |
| 2026-04-22 19:33 | 38.78413 | -8.75336 | 9337 ft | 303 kts | 14° |
| 2026-04-22 19:33 | 38.80436 | -8.74685 | 9032 ft | 303 kts | 15° |
| 2026-04-22 19:33 | 38.82487 | -8.74025 | 8707 ft | 304 kts | 15° |
| 2026-04-22 19:33 | 38.84544 | -8.73363 | 8395 ft | 305 kts | 15° |
| 2026-04-22 19:34 | 38.86592 | -8.72703 | 8070 ft | 300 kts | 15° |
| 2026-04-22 19:34 | 38.88592 | -8.72059 | 7745 ft | 292 kts | 15° |
| 2026-04-22 19:34 | 38.90537 | -8.71432 | 7441 ft | 284 kts | 15° |
| 2026-04-22 19:34 | 38.92413 | -8.70827 | 7207 ft | 272 kts | 16° |
| 2026-04-22 19:35 | 38.94203 | -8.70251 | 7035 ft | 258 kts | 16° |
| 2026-04-22 19:35 | 38.95972 | -8.69956 | 6966 ft | 259 kts | 351° |
| 2026-04-22 19:35 | 38.97583 | -8.70931 | 6979 ft | 261 kts | 313° |
| 2026-04-22 19:35 | 38.98480 | -8.72909 | 7001 ft | 256 kts | 279° |
| 2026-04-22 19:36 | 38.98618 | -8.75152 | 6984 ft | 249 kts | 264° |
| 2026-04-22 19:36 | 38.98501 | -8.77333 | 6971 ft | 239 kts | 262° |
| 2026-04-22 19:36 | 38.98357 | -8.79397 | 6959 ft | 224 kts | 261° |
| 2026-04-22 19:36 | 38.98215 | -8.81351 | 6730 ft | 220 kts | 261° |
| 2026-04-22 19:37 | 38.98071 | -8.83299 | 6457 ft | 217 kts | 261° |
| 2026-04-22 19:37 | 38.97931 | -8.85224 | 6168 ft | 215 kts | 261° |
| 2026-04-22 19:37 | 38.97795 | -8.87130 | 5880 ft | 213 kts | 261° |
| 2026-04-22 19:37 | 38.97661 | -8.89007 | 5601 ft | 209 kts | 262° |
| 2026-04-22 19:38 | 38.97533 | -8.90842 | 5379 ft | 202 kts | 262° |
| 2026-04-22 19:38 | 38.97409 | -8.92620 | 5303 ft | 201 kts | 262° |
| 2026-04-22 19:38 | 38.97283 | -8.94430 | 5232 ft | 207 kts | 263° |
| 2026-04-22 19:38 | 38.97153 | -8.96289 | 5041 ft | 212 kts | 262° |
| 2026-04-22 19:39 | 38.97023 | -8.98152 | 4774 ft | 211 kts | 263° |
| 2026-04-22 19:39 | 38.96893 | -9.00023 | 4450 ft | 208 kts | 263° |
| 2026-04-22 19:39 | 38.96754 | -9.01851 | 4113 ft | 202 kts | 257° |
| 2026-04-22 19:39 | 38.96137 | -9.03345 | 3900 ft | 187 kts | 214° |
| 2026-04-22 19:40 | 38.95001 | -9.04199 | 3746 ft | 195 kts | 205° |
| 2026-04-22 19:40 | 38.93799 | -9.05071 | 3472 ft | 199 kts | 204° |
| 2026-04-22 19:40 | 38.92561 | -9.05838 | 3201 ft | 196 kts | 202° |
| 2026-04-22 19:40 | 38.91322 | -9.06519 | 2939 ft | 192 kts | 202° |
| 2026-04-22 19:41 | 38.90100 | -9.07174 | 2692 ft | 189 kts | 202° |
| 2026-04-22 19:41 | 38.88901 | -9.07817 | 2435 ft | 185 kts | 203° |
| 2026-04-22 19:41 | 38.87721 | -9.08450 | 2182 ft | 181 kts | 204° |
| 2026-04-22 19:41 | 38.86606 | -9.09048 | 1984 ft | 166 kts | 206° |
| 2026-04-22 19:42 | 38.85585 | -9.09597 | 1736 ft | 150 kts | 204° |
| 2026-04-22 19:42 | 38.84654 | -9.10095 | 1546 ft | 146 kts | 204° |
| 2026-04-22 19:42 | 38.83696 | -9.10610 | 1331 ft | 151 kts | 206° |
| 2026-04-22 19:42 | 38.82732 | -9.11127 | 1122 ft | 149 kts | 205° |
| 2026-04-22 19:43 | 38.80809 | -9.12159 | 724 ft | 151 kts | 205° |
| 2026-04-22 19:43 | 38.79838 | -9.12674 | 541 ft | 151 kts | 206° |
| 2026-04-22 19:43 | 38.78866 | -9.13195 | 380 ft | 151 kts | 206° |
| 2026-04-22 19:44 | 38.77923 | -9.13695 | 666 ft | 142 kts | 207° |
| 2026-04-22 19:44 | 38.77028 | -9.14155 | 1068 ft | 138 kts | 204° |
| 2026-04-22 19:44 | 38.76097 | -9.14603 | 1358 ft | 148 kts | 203° |
| 2026-04-22 19:44 | 38.75100 | -9.15066 | 1764 ft | 160 kts | 203° |
| 2026-04-22 19:45 | 38.74028 | -9.15605 | 2615 ft | 168 kts | 201° |
| 2026-04-22 19:45 | 38.72954 | -9.16211 | 3482 ft | 167 kts | 202° |
| 2026-04-22 19:45 | 38.71940 | -9.17085 | 4038 ft | 188 kts | 227° |
| 2026-04-22 19:45 | 38.71434 | -9.18637 | 4100 ft | 201 kts | 265° |
| 2026-04-22 19:46 | 38.71785 | -9.20385 | 4109 ft | 204 kts | 304° |
| 2026-04-22 19:46 | 38.72750 | -9.21665 | 4144 ft | 203 kts | 318° |
| 2026-04-22 19:46 | 38.73815 | -9.22878 | 4108 ft | 206 kts | 318° |
| 2026-04-22 19:46 | 38.74877 | -9.24085 | 4106 ft | 203 kts | 319° |
| 2026-04-22 19:47 | 38.75943 | -9.25293 | 4146 ft | 214 kts | 319° |
| 2026-04-22 19:47 | 38.77154 | -9.26658 | 4182 ft | 245 kts | 319° |
| 2026-04-22 19:47 | 38.78004 | -9.27615 | 4121 ft | 245 kts | 319° |
| 2026-04-22 19:47 | 38.79725 | -9.29547 | 4142 ft | 248 kts | 319° |
| 2026-04-22 19:48 | 38.81066 | -9.30931 | 4135 ft | 247 kts | 331° |
| 2026-04-22 19:48 | 38.82690 | -9.31503 | 4162 ft | 243 kts | 4° |
| 2026-04-22 19:48 | 38.84334 | -9.31107 | 4152 ft | 240 kts | 19° |
| 2026-04-22 19:48 | 38.85959 | -9.30516 | 4141 ft | 243 kts | 18° |
| 2026-04-22 19:49 | 38.87589 | -9.29915 | 4085 ft | 243 kts | 19° |
| 2026-04-22 19:49 | 38.89207 | -9.29321 | 4025 ft | 239 kts | 18° |
| 2026-04-22 19:49 | 38.90800 | -9.28725 | 4052 ft | 240 kts | 19° |
| 2026-04-22 19:49 | 38.92404 | -9.28120 | 4037 ft | 241 kts | 18° |
| 2026-04-22 19:50 | 38.94023 | -9.27509 | 4033 ft | 242 kts | 18° |
| 2026-04-22 19:50 | 38.95638 | -9.26892 | 4035 ft | 242 kts | 19° |
| 2026-04-22 19:50 | 38.97250 | -9.26277 | 4020 ft | 242 kts | 19° |
| 2026-04-22 19:50 | 38.98855 | -9.25669 | 4036 ft | 241 kts | 19° |
| 2026-04-22 19:51 | 39.00439 | -9.25058 | 4027 ft | 239 kts | 22° |
| 2026-04-22 19:51 | 39.01770 | -9.23885 | 4014 ft | 232 kts | 59° |
| 2026-04-22 19:51 | 39.02198 | -9.21949 | 4048 ft | 228 kts | 99° |
| 2026-04-22 19:51 | 39.01668 | -9.20055 | 4046 ft | 226 kts | 118° |
| 2026-04-22 19:52 | 39.01046 | -9.18188 | 4031 ft | 229 kts | 112° |
| 2026-04-22 19:52 | 39.00487 | -9.16275 | 4028 ft | 226 kts | 112° |
| 2026-04-22 19:52 | 38.99943 | -9.14433 | 4010 ft | 214 kts | 112° |
| 2026-04-22 19:52 | 38.99423 | -9.12710 | 4013 ft | 199 kts | 113° |
| 2026-04-22 19:53 | 38.98940 | -9.11125 | 4023 ft | 184 kts | 114° |
| 2026-04-22 19:53 | 38.98473 | -9.09611 | 4030 ft | 182 kts | 113° |
| 2026-04-22 19:53 | 38.98162 | -9.08607 | 4017 ft | 183 kts | 112° |
| 2026-04-22 19:53 | 38.97536 | -9.06579 | 4017 ft | 181 kts | 112° |
| 2026-04-22 19:54 | 38.96857 | -9.05264 | 3969 ft | 181 kts | 143° |
| 2026-04-22 19:54 | 38.95632 | -9.04811 | 3779 ft | 192 kts | 182° |
| 2026-04-22 19:54 | 38.94327 | -9.05223 | 3548 ft | 194 kts | 193° |
| 2026-04-22 19:54 | 38.93034 | -9.05693 | 3294 ft | 192 kts | 196° |
| 2026-04-22 19:55 | 38.91785 | -9.06277 | 3028 ft | 190 kts | 200° |
| 2026-04-22 19:55 | 38.90580 | -9.06913 | 2784 ft | 184 kts | 202° |
| 2026-04-22 19:55 | 38.89452 | -9.07518 | 2554 ft | 168 kts | 203° |
| 2026-04-22 19:55 | 38.88418 | -9.08075 | 2326 ft | 153 kts | 204° |
| 2026-04-22 19:56 | 38.87473 | -9.08583 | 2163 ft | 146 kts | 205° |
| 2026-04-22 19:56 | 38.86515 | -9.09099 | 1949 ft | 150 kts | 204° |
| 2026-04-22 19:56 | 38.85570 | -9.09601 | 1741 ft | 144 kts | 206° |
| 2026-04-22 19:56 | 38.84653 | -9.10091 | 1516 ft | 143 kts | 206° |
| 2026-04-22 19:57 | 38.83716 | -9.10595 | 1298 ft | 147 kts | 205° |
| 2026-04-22 19:57 | 38.82771 | -9.11102 | 1082 ft | 150 kts | 206° |
| 2026-04-22 19:57 | 38.81816 | -9.11616 | 968 ft | 150 kts | 205° |
| 2026-04-22 19:57 | 38.80850 | -9.12130 | 728 ft | 149 kts | 206° |
| 2026-04-22 19:58 | 38.79883 | -9.12645 | 517 ft | 151 kts | 206° |
| 2026-04-22 19:58 | 38.78919 | -9.13167 | 370 ft | 149 kts | 206° |
| 2026-04-22 19:58 | 38.78046 | -9.13639 | 374 ft | 115 kts | 202° |
| 2026-04-22 19:58 | 38.77587 | -9.13880 | 373 ft | 34 kts | 196° |
| 2026-04-22 19:59 | 38.77414 | -9.13898 | 370 ft | 26 kts | 178° |
| 2026-04-22 20:00 | 38.77244 | -9.13486 | 357 ft | 12 kts | 166° |
| 2026-04-22 20:00 | 38.77164 | -9.13466 | 351 ft | 11 kts | 169° |
| 2026-04-22 20:01 | 38.77103 | -9.13476 | 356 ft | 8 kts | 231° |
| 2026-04-22 20:01 | 38.77065 | -9.13522 | 362 ft | 7 kts | 201° |
| 2026-04-22 20:01 | 38.77027 | -9.13549 | 360 ft | 5 kts | 232° |
| 2026-04-22 20:01 | 38.77015 | -9.13588 | 357 ft | 4 kts | 254° |
| 2026-04-22 20:02 | 38.77011 | -9.13615 | 358 ft | 0 kts | 260° |